<?xml version="1.0" encoding="UTF-8" standalone="no" ?>
<gpx xmlns="http://www.topografix.com/GPX/1/1" xmlns:xsi="http://www.w3.org/2001/XMLSchema-instance" xsi:schemaLocation="http://www.topografix.com/GPX/1/1 http://www.topografix.com/GPX/1/1/gpx.xsd" version="1.1" creator="VisuGPX - https://www.visugpx.com">
  <metadata>
    <name>Circuit du 30-05-2012</name>
    <desc><![CDATA[Circuit du 30-05-2012]]></desc>
  </metadata>
  <wpt lat="45.38375" lon="3.75156">
    <ele>658</ele>
    <name><![CDATA[Start]]></name>
  </wpt>
  <wpt lat="45.3832" lon="3.75077">
    <ele>653.70001220703</ele>
    <name><![CDATA[End]]></name>
  </wpt>
  <trk>
    <name><![CDATA[Circuit du 30-05-2012_1]]></name>
    <trkseg>
      <trkpt lat="45.38375" lon="3.75156">
        <ele>658</ele>
        <time>2012-05-30T16:32:51Z</time>
      </trkpt>
      <trkpt lat="45.38372" lon="3.7515">
        <ele>658.40002441406</ele>
        <time>2012-05-30T16:32:53Z</time>
      </trkpt>
      <trkpt lat="45.38368" lon="3.75144">
        <ele>658.29998779297</ele>
        <time>2012-05-30T16:32:55Z</time>
      </trkpt>
      <trkpt lat="45.38363" lon="3.75141">
        <ele>657.90002441406</ele>
        <time>2012-05-30T16:32:56Z</time>
      </trkpt>
      <trkpt lat="45.38357" lon="3.75132">
        <ele>658.29998779297</ele>
        <time>2012-05-30T16:33:01Z</time>
      </trkpt>
      <trkpt lat="45.38354" lon="3.75127">
        <ele>658.59997558594</ele>
        <time>2012-05-30T16:33:02Z</time>
      </trkpt>
      <trkpt lat="45.38352" lon="3.75122">
        <ele>655.90002441406</ele>
        <time>2012-05-30T16:33:05Z</time>
      </trkpt>
      <trkpt lat="45.38346" lon="3.75115">
        <ele>658</ele>
        <time>2012-05-30T16:33:08Z</time>
      </trkpt>
      <trkpt lat="45.38342" lon="3.75109">
        <ele>658.5</ele>
        <time>2012-05-30T16:33:12Z</time>
      </trkpt>
      <trkpt lat="45.38338" lon="3.75103">
        <ele>659.70001220703</ele>
        <time>2012-05-30T16:33:14Z</time>
      </trkpt>
      <trkpt lat="45.38337" lon="3.75096">
        <ele>657.40002441406</ele>
        <time>2012-05-30T16:33:17Z</time>
      </trkpt>
      <trkpt lat="45.38334" lon="3.7509">
        <ele>657.70001220703</ele>
        <time>2012-05-30T16:33:20Z</time>
      </trkpt>
      <trkpt lat="45.38325" lon="3.7508">
        <ele>657.29998779297</ele>
        <time>2012-05-30T16:33:27Z</time>
      </trkpt>
      <trkpt lat="45.38313" lon="3.75072">
        <ele>654.20001220703</ele>
        <time>2012-05-30T16:33:33Z</time>
      </trkpt>
      <trkpt lat="45.38309" lon="3.7507">
        <ele>652.29998779297</ele>
        <time>2012-05-30T16:33:35Z</time>
      </trkpt>
      <trkpt lat="45.38305" lon="3.75068">
        <ele>652.59997558594</ele>
        <time>2012-05-30T16:33:37Z</time>
      </trkpt>
      <trkpt lat="45.38288" lon="3.75061">
        <ele>652.59997558594</ele>
        <time>2012-05-30T16:33:47Z</time>
      </trkpt>
      <trkpt lat="45.38283" lon="3.75058">
        <ele>652.29998779297</ele>
        <time>2012-05-30T16:33:49Z</time>
      </trkpt>
      <trkpt lat="45.38278" lon="3.75054">
        <ele>652.29998779297</ele>
        <time>2012-05-30T16:33:53Z</time>
      </trkpt>
      <trkpt lat="45.38275" lon="3.75046">
        <ele>652.29998779297</ele>
        <time>2012-05-30T16:33:55Z</time>
      </trkpt>
      <trkpt lat="45.38261" lon="3.75039">
        <ele>650.40002441406</ele>
        <time>2012-05-30T16:34:02Z</time>
      </trkpt>
      <trkpt lat="45.38258" lon="3.75032">
        <ele>650.5</ele>
        <time>2012-05-30T16:34:05Z</time>
      </trkpt>
      <trkpt lat="45.38257" lon="3.75023">
        <ele>655.95446777344</ele>
        <time>2012-05-30T16:34:06Z</time>
      </trkpt>
      <trkpt lat="45.3825" lon="3.75022">
        <ele>658.09997558594</ele>
        <time>2012-05-30T16:34:09Z</time>
      </trkpt>
      <trkpt lat="45.38245" lon="3.75019">
        <ele>658</ele>
        <time>2012-05-30T16:34:12Z</time>
      </trkpt>
      <trkpt lat="45.38241" lon="3.75015">
        <ele>657.59997558594</ele>
        <time>2012-05-30T16:34:15Z</time>
      </trkpt>
      <trkpt lat="45.38233" lon="3.74999">
        <ele>657.59997558594</ele>
        <time>2012-05-30T16:34:21Z</time>
      </trkpt>
      <trkpt lat="45.38226" lon="3.7498">
        <ele>655.79998779297</ele>
        <time>2012-05-30T16:34:27Z</time>
      </trkpt>
      <trkpt lat="45.38224" lon="3.74975">
        <ele>655.20001220703</ele>
        <time>2012-05-30T16:34:29Z</time>
      </trkpt>
      <trkpt lat="45.3822" lon="3.74969">
        <ele>654.79998779297</ele>
        <time>2012-05-30T16:34:32Z</time>
      </trkpt>
      <trkpt lat="45.38216" lon="3.74964">
        <ele>655.40002441406</ele>
        <time>2012-05-30T16:34:34Z</time>
      </trkpt>
      <trkpt lat="45.38212" lon="3.74958">
        <ele>654.5</ele>
        <time>2012-05-30T16:34:37Z</time>
      </trkpt>
      <trkpt lat="45.38209" lon="3.74953">
        <ele>654</ele>
        <time>2012-05-30T16:34:40Z</time>
      </trkpt>
      <trkpt lat="45.38204" lon="3.74948">
        <ele>653.29998779297</ele>
        <time>2012-05-30T16:34:43Z</time>
      </trkpt>
      <trkpt lat="45.38199" lon="3.74942">
        <ele>652.40002441406</ele>
        <time>2012-05-30T16:34:46Z</time>
      </trkpt>
      <trkpt lat="45.38194" lon="3.74937">
        <ele>652.79998779297</ele>
        <time>2012-05-30T16:34:49Z</time>
      </trkpt>
      <trkpt lat="45.3819" lon="3.74931">
        <ele>652.20001220703</ele>
        <time>2012-05-30T16:34:52Z</time>
      </trkpt>
      <trkpt lat="45.38182" lon="3.74925">
        <ele>652.5</ele>
        <time>2012-05-30T16:34:57Z</time>
      </trkpt>
      <trkpt lat="45.38176" lon="3.7492">
        <ele>651.90002441406</ele>
        <time>2012-05-30T16:35:00Z</time>
      </trkpt>
      <trkpt lat="45.38171" lon="3.74914">
        <ele>651.5</ele>
        <time>2012-05-30T16:35:03Z</time>
      </trkpt>
      <trkpt lat="45.38164" lon="3.7491">
        <ele>652.5</ele>
        <time>2012-05-30T16:35:07Z</time>
      </trkpt>
      <trkpt lat="45.38161" lon="3.74905">
        <ele>653.09997558594</ele>
        <time>2012-05-30T16:35:09Z</time>
      </trkpt>
      <trkpt lat="45.38154" lon="3.74896">
        <ele>653.90002441406</ele>
        <time>2012-05-30T16:35:13Z</time>
      </trkpt>
      <trkpt lat="45.38147" lon="3.74891">
        <ele>655.20001220703</ele>
        <time>2012-05-30T16:35:17Z</time>
      </trkpt>
      <trkpt lat="45.3814" lon="3.74886">
        <ele>655.79998779297</ele>
        <time>2012-05-30T16:35:20Z</time>
      </trkpt>
      <trkpt lat="45.38137" lon="3.74882">
        <ele>655.20001220703</ele>
        <time>2012-05-30T16:35:22Z</time>
      </trkpt>
      <trkpt lat="45.38131" lon="3.74871">
        <ele>654.20001220703</ele>
        <time>2012-05-30T16:35:26Z</time>
      </trkpt>
      <trkpt lat="45.38127" lon="3.74865">
        <ele>654.90002441406</ele>
        <time>2012-05-30T16:35:29Z</time>
      </trkpt>
      <trkpt lat="45.38124" lon="3.74859">
        <ele>653.79998779297</ele>
        <time>2012-05-30T16:35:32Z</time>
      </trkpt>
      <trkpt lat="45.38122" lon="3.74853">
        <ele>653.5</ele>
        <time>2012-05-30T16:35:34Z</time>
      </trkpt>
      <trkpt lat="45.38119" lon="3.74847">
        <ele>653.09997558594</ele>
        <time>2012-05-30T16:35:36Z</time>
      </trkpt>
      <trkpt lat="45.38115" lon="3.74842">
        <ele>653.40002441406</ele>
        <time>2012-05-30T16:35:39Z</time>
      </trkpt>
      <trkpt lat="45.38111" lon="3.74838">
        <ele>653.79998779297</ele>
        <time>2012-05-30T16:35:42Z</time>
      </trkpt>
      <trkpt lat="45.38109" lon="3.74831">
        <ele>654.09997558594</ele>
        <time>2012-05-30T16:35:45Z</time>
      </trkpt>
      <trkpt lat="45.38105" lon="3.74826">
        <ele>654.70001220703</ele>
        <time>2012-05-30T16:35:47Z</time>
      </trkpt>
      <trkpt lat="45.38102" lon="3.74821">
        <ele>653.5</ele>
        <time>2012-05-30T16:35:50Z</time>
      </trkpt>
      <trkpt lat="45.38098" lon="3.74814">
        <ele>654.59997558594</ele>
        <time>2012-05-30T16:35:53Z</time>
      </trkpt>
      <trkpt lat="45.38095" lon="3.74808">
        <ele>656.40002441406</ele>
        <time>2012-05-30T16:35:56Z</time>
      </trkpt>
      <trkpt lat="45.38092" lon="3.74801">
        <ele>658.90002441406</ele>
        <time>2012-05-30T16:35:59Z</time>
      </trkpt>
      <trkpt lat="45.38088" lon="3.74796">
        <ele>658.29998779297</ele>
        <time>2012-05-30T16:36:01Z</time>
      </trkpt>
      <trkpt lat="45.38085" lon="3.74791">
        <ele>658.90002441406</ele>
        <time>2012-05-30T16:36:03Z</time>
      </trkpt>
      <trkpt lat="45.3808" lon="3.74786">
        <ele>657.59997558594</ele>
        <time>2012-05-30T16:36:06Z</time>
      </trkpt>
      <trkpt lat="45.38074" lon="3.74781">
        <ele>659.20001220703</ele>
        <time>2012-05-30T16:36:09Z</time>
      </trkpt>
      <trkpt lat="45.38066" lon="3.74771">
        <ele>652.70001220703</ele>
        <time>2012-05-30T16:36:15Z</time>
      </trkpt>
      <trkpt lat="45.38061" lon="3.74767">
        <ele>653.59997558594</ele>
        <time>2012-05-30T16:36:17Z</time>
      </trkpt>
      <trkpt lat="45.38057" lon="3.74764">
        <ele>655.59997558594</ele>
        <time>2012-05-30T16:36:19Z</time>
      </trkpt>
      <trkpt lat="45.38049" lon="3.74756">
        <ele>654.70001220703</ele>
        <time>2012-05-30T16:36:24Z</time>
      </trkpt>
      <trkpt lat="45.38043" lon="3.74751">
        <ele>654.40002441406</ele>
        <time>2012-05-30T16:36:27Z</time>
      </trkpt>
      <trkpt lat="45.3804" lon="3.74745">
        <ele>655.09997558594</ele>
        <time>2012-05-30T16:36:30Z</time>
      </trkpt>
      <trkpt lat="45.38035" lon="3.7474">
        <ele>654.90002441406</ele>
        <time>2012-05-30T16:36:33Z</time>
      </trkpt>
      <trkpt lat="45.3803" lon="3.74735">
        <ele>655.59997558594</ele>
        <time>2012-05-30T16:36:36Z</time>
      </trkpt>
      <trkpt lat="45.38025" lon="3.74731">
        <ele>656.70001220703</ele>
        <time>2012-05-30T16:36:39Z</time>
      </trkpt>
      <trkpt lat="45.38022" lon="3.74725">
        <ele>657.59997558594</ele>
        <time>2012-05-30T16:36:41Z</time>
      </trkpt>
      <trkpt lat="45.38017" lon="3.74722">
        <ele>656.59997558594</ele>
        <time>2012-05-30T16:36:44Z</time>
      </trkpt>
      <trkpt lat="45.38013" lon="3.74716">
        <ele>656.5</ele>
        <time>2012-05-30T16:36:47Z</time>
      </trkpt>
      <trkpt lat="45.3801" lon="3.74711">
        <ele>655.70001220703</ele>
        <time>2012-05-30T16:36:49Z</time>
      </trkpt>
      <trkpt lat="45.38005" lon="3.74704">
        <ele>656.29998779297</ele>
        <time>2012-05-30T16:36:52Z</time>
      </trkpt>
      <trkpt lat="45.38002" lon="3.74697">
        <ele>657.20001220703</ele>
        <time>2012-05-30T16:36:55Z</time>
      </trkpt>
      <trkpt lat="45.37998" lon="3.74689">
        <ele>657.59997558594</ele>
        <time>2012-05-30T16:36:58Z</time>
      </trkpt>
      <trkpt lat="45.37995" lon="3.74682">
        <ele>657.79998779297</ele>
        <time>2012-05-30T16:37:01Z</time>
      </trkpt>
      <trkpt lat="45.37991" lon="3.74674">
        <ele>657.90002441406</ele>
        <time>2012-05-30T16:37:04Z</time>
      </trkpt>
      <trkpt lat="45.37988" lon="3.74667">
        <ele>657.79998779297</ele>
        <time>2012-05-30T16:37:07Z</time>
      </trkpt>
      <trkpt lat="45.37982" lon="3.74658">
        <ele>658.40002441406</ele>
        <time>2012-05-30T16:37:11Z</time>
      </trkpt>
      <trkpt lat="45.37979" lon="3.74653">
        <ele>659</ele>
        <time>2012-05-30T16:37:13Z</time>
      </trkpt>
      <trkpt lat="45.37975" lon="3.74646">
        <ele>658.70001220703</ele>
        <time>2012-05-30T16:37:16Z</time>
      </trkpt>
      <trkpt lat="45.3797" lon="3.7464">
        <ele>658.09997558594</ele>
        <time>2012-05-30T16:37:20Z</time>
      </trkpt>
      <trkpt lat="45.37965" lon="3.74636">
        <ele>658</ele>
        <time>2012-05-30T16:37:23Z</time>
      </trkpt>
      <trkpt lat="45.37961" lon="3.74629">
        <ele>658.70001220703</ele>
        <time>2012-05-30T16:37:26Z</time>
      </trkpt>
      <trkpt lat="45.37957" lon="3.74623">
        <ele>657.79998779297</ele>
        <time>2012-05-30T16:37:29Z</time>
      </trkpt>
      <trkpt lat="45.37954" lon="3.74618">
        <ele>658.29998779297</ele>
        <time>2012-05-30T16:37:31Z</time>
      </trkpt>
      <trkpt lat="45.3795" lon="3.74613">
        <ele>658.5</ele>
        <time>2012-05-30T16:37:34Z</time>
      </trkpt>
      <trkpt lat="45.37942" lon="3.74601">
        <ele>659.59997558594</ele>
        <time>2012-05-30T16:37:40Z</time>
      </trkpt>
      <trkpt lat="45.37937" lon="3.74596">
        <ele>661.59997558594</ele>
        <time>2012-05-30T16:37:43Z</time>
      </trkpt>
      <trkpt lat="45.37933" lon="3.74589">
        <ele>661.20001220703</ele>
        <time>2012-05-30T16:37:48Z</time>
      </trkpt>
      <trkpt lat="45.37929" lon="3.74586">
        <ele>659.40002441406</ele>
        <time>2012-05-30T16:37:50Z</time>
      </trkpt>
      <trkpt lat="45.37925" lon="3.7458">
        <ele>659.79998779297</ele>
        <time>2012-05-30T16:37:53Z</time>
      </trkpt>
      <trkpt lat="45.37921" lon="3.74576">
        <ele>660.90002441406</ele>
        <time>2012-05-30T16:37:55Z</time>
      </trkpt>
      <trkpt lat="45.37917" lon="3.7457">
        <ele>660.70001220703</ele>
        <time>2012-05-30T16:37:58Z</time>
      </trkpt>
      <trkpt lat="45.37911" lon="3.74559">
        <ele>661.40002441406</ele>
        <time>2012-05-30T16:38:03Z</time>
      </trkpt>
      <trkpt lat="45.37907" lon="3.74554">
        <ele>662.09997558594</ele>
        <time>2012-05-30T16:38:05Z</time>
      </trkpt>
      <trkpt lat="45.37902" lon="3.74548">
        <ele>661.79998779297</ele>
        <time>2012-05-30T16:38:08Z</time>
      </trkpt>
      <trkpt lat="45.37891" lon="3.74531">
        <ele>663.79998779297</ele>
        <time>2012-05-30T16:38:16Z</time>
      </trkpt>
      <trkpt lat="45.37888" lon="3.74525">
        <ele>663.90002441406</ele>
        <time>2012-05-30T16:38:18Z</time>
      </trkpt>
      <trkpt lat="45.37885" lon="3.7452">
        <ele>663.20001220703</ele>
        <time>2012-05-30T16:38:20Z</time>
      </trkpt>
      <trkpt lat="45.3788" lon="3.74514">
        <ele>663.70001220703</ele>
        <time>2012-05-30T16:38:23Z</time>
      </trkpt>
      <trkpt lat="45.37876" lon="3.74508">
        <ele>663</ele>
        <time>2012-05-30T16:38:26Z</time>
      </trkpt>
      <trkpt lat="45.37873" lon="3.74502">
        <ele>662.29998779297</ele>
        <time>2012-05-30T16:38:29Z</time>
      </trkpt>
      <trkpt lat="45.37868" lon="3.74495">
        <ele>662.29998779297</ele>
        <time>2012-05-30T16:38:32Z</time>
      </trkpt>
      <trkpt lat="45.37865" lon="3.74489">
        <ele>661.5</ele>
        <time>2012-05-30T16:38:35Z</time>
      </trkpt>
      <trkpt lat="45.3786" lon="3.74483">
        <ele>660.90002441406</ele>
        <time>2012-05-30T16:38:38Z</time>
      </trkpt>
      <trkpt lat="45.37857" lon="3.74477">
        <ele>660.09997558594</ele>
        <time>2012-05-30T16:38:41Z</time>
      </trkpt>
      <trkpt lat="45.37847" lon="3.74458">
        <ele>658.40002441406</ele>
        <time>2012-05-30T16:38:49Z</time>
      </trkpt>
      <trkpt lat="45.37845" lon="3.7445">
        <ele>659.20001220703</ele>
        <time>2012-05-30T16:38:52Z</time>
      </trkpt>
      <trkpt lat="45.37844" lon="3.74439">
        <ele>659</ele>
        <time>2012-05-30T16:38:56Z</time>
      </trkpt>
      <trkpt lat="45.37843" lon="3.74433">
        <ele>659</ele>
        <time>2012-05-30T16:38:58Z</time>
      </trkpt>
      <trkpt lat="45.37843" lon="3.74424">
        <ele>658.40002441406</ele>
        <time>2012-05-30T16:39:01Z</time>
      </trkpt>
      <trkpt lat="45.37837" lon="3.74403">
        <ele>657.70001220703</ele>
        <time>2012-05-30T16:39:08Z</time>
      </trkpt>
      <trkpt lat="45.37837" lon="3.74396">
        <ele>659.09997558594</ele>
        <time>2012-05-30T16:39:11Z</time>
      </trkpt>
      <trkpt lat="45.37838" lon="3.7439">
        <ele>661.70001220703</ele>
        <time>2012-05-30T16:39:13Z</time>
      </trkpt>
      <trkpt lat="45.37837" lon="3.74383">
        <ele>660.40002441406</ele>
        <time>2012-05-30T16:39:16Z</time>
      </trkpt>
      <trkpt lat="45.37837" lon="3.74376">
        <ele>662.09997558594</ele>
        <time>2012-05-30T16:39:18Z</time>
      </trkpt>
      <trkpt lat="45.37835" lon="3.74369">
        <ele>661.79998779297</ele>
        <time>2012-05-30T16:39:20Z</time>
      </trkpt>
      <trkpt lat="45.37831" lon="3.74352">
        <ele>662.70001220703</ele>
        <time>2012-05-30T16:39:26Z</time>
      </trkpt>
      <trkpt lat="45.37829" lon="3.74344">
        <ele>664.40002441406</ele>
        <time>2012-05-30T16:39:28Z</time>
      </trkpt>
      <trkpt lat="45.37827" lon="3.74335">
        <ele>664.90002441406</ele>
        <time>2012-05-30T16:39:31Z</time>
      </trkpt>
      <trkpt lat="45.37824" lon="3.74329">
        <ele>665.79998779297</ele>
        <time>2012-05-30T16:39:34Z</time>
      </trkpt>
      <trkpt lat="45.37821" lon="3.74323">
        <ele>665.59997558594</ele>
        <time>2012-05-30T16:39:37Z</time>
      </trkpt>
      <trkpt lat="45.37818" lon="3.74318">
        <ele>665.90002441406</ele>
        <time>2012-05-30T16:39:39Z</time>
      </trkpt>
      <trkpt lat="45.37814" lon="3.7431">
        <ele>665.90002441406</ele>
        <time>2012-05-30T16:39:42Z</time>
      </trkpt>
      <trkpt lat="45.37812" lon="3.74304">
        <ele>667.20001220703</ele>
        <time>2012-05-30T16:39:44Z</time>
      </trkpt>
      <trkpt lat="45.37805" lon="3.74286">
        <ele>664.90002441406</ele>
        <time>2012-05-30T16:39:52Z</time>
      </trkpt>
      <trkpt lat="45.37806" lon="3.74279">
        <ele>662.79998779297</ele>
        <time>2012-05-30T16:39:55Z</time>
      </trkpt>
      <trkpt lat="45.37807" lon="3.74272">
        <ele>662.59997558594</ele>
        <time>2012-05-30T16:39:58Z</time>
      </trkpt>
      <trkpt lat="45.37805" lon="3.74264">
        <ele>660.79998779297</ele>
        <time>2012-05-30T16:40:01Z</time>
      </trkpt>
      <trkpt lat="45.37806" lon="3.74257">
        <ele>661.09997558594</ele>
        <time>2012-05-30T16:40:03Z</time>
      </trkpt>
      <trkpt lat="45.37808" lon="3.74226">
        <ele>663.70001220703</ele>
        <time>2012-05-30T16:40:10Z</time>
      </trkpt>
      <trkpt lat="45.37806" lon="3.74218">
        <ele>661.40002441406</ele>
        <time>2012-05-30T16:40:14Z</time>
      </trkpt>
      <trkpt lat="45.37802" lon="3.74212">
        <ele>663.5</ele>
        <time>2012-05-30T16:40:17Z</time>
      </trkpt>
      <trkpt lat="45.378" lon="3.742">
        <ele>666.29998779297</ele>
        <time>2012-05-30T16:40:22Z</time>
      </trkpt>
      <trkpt lat="45.37795" lon="3.74193">
        <ele>666.59997558594</ele>
        <time>2012-05-30T16:40:24Z</time>
      </trkpt>
      <trkpt lat="45.37791" lon="3.7418">
        <ele>668.40002441406</ele>
        <time>2012-05-30T16:40:29Z</time>
      </trkpt>
      <trkpt lat="45.37788" lon="3.74163">
        <ele>667.90002441406</ele>
        <time>2012-05-30T16:40:33Z</time>
      </trkpt>
      <trkpt lat="45.37789" lon="3.74155">
        <ele>669.29998779297</ele>
        <time>2012-05-30T16:40:37Z</time>
      </trkpt>
      <trkpt lat="45.37791" lon="3.74148">
        <ele>665.09997558594</ele>
        <time>2012-05-30T16:40:41Z</time>
      </trkpt>
      <trkpt lat="45.37789" lon="3.74142">
        <ele>665.40002441406</ele>
        <time>2012-05-30T16:40:44Z</time>
      </trkpt>
      <trkpt lat="45.37784" lon="3.74139">
        <ele>665.40002441406</ele>
        <time>2012-05-30T16:40:46Z</time>
      </trkpt>
      <trkpt lat="45.37779" lon="3.74131">
        <ele>663.5</ele>
        <time>2012-05-30T16:40:49Z</time>
      </trkpt>
      <trkpt lat="45.37776" lon="3.74124">
        <ele>662.09997558594</ele>
        <time>2012-05-30T16:40:52Z</time>
      </trkpt>
      <trkpt lat="45.37774" lon="3.74118">
        <ele>663.79998779297</ele>
        <time>2012-05-30T16:40:55Z</time>
      </trkpt>
      <trkpt lat="45.37768" lon="3.74104">
        <ele>664.29998779297</ele>
        <time>2012-05-30T16:40:59Z</time>
      </trkpt>
      <trkpt lat="45.37766" lon="3.74094">
        <ele>663</ele>
        <time>2012-05-30T16:41:02Z</time>
      </trkpt>
      <trkpt lat="45.37764" lon="3.74086">
        <ele>663</ele>
        <time>2012-05-30T16:41:05Z</time>
      </trkpt>
      <trkpt lat="45.37763" lon="3.74078">
        <ele>665</ele>
        <time>2012-05-30T16:41:07Z</time>
      </trkpt>
      <trkpt lat="45.37761" lon="3.74071">
        <ele>665.20001220703</ele>
        <time>2012-05-30T16:41:10Z</time>
      </trkpt>
      <trkpt lat="45.37759" lon="3.74064">
        <ele>666.59997558594</ele>
        <time>2012-05-30T16:41:13Z</time>
      </trkpt>
      <trkpt lat="45.37755" lon="3.74048">
        <ele>662.5</ele>
        <time>2012-05-30T16:41:19Z</time>
      </trkpt>
      <trkpt lat="45.37752" lon="3.7404">
        <ele>661.79998779297</ele>
        <time>2012-05-30T16:41:23Z</time>
      </trkpt>
      <trkpt lat="45.37748" lon="3.74037">
        <ele>661.79998779297</ele>
        <time>2012-05-30T16:41:26Z</time>
      </trkpt>
      <trkpt lat="45.37742" lon="3.74032">
        <ele>661.70001220703</ele>
        <time>2012-05-30T16:41:29Z</time>
      </trkpt>
      <trkpt lat="45.37737" lon="3.74024">
        <ele>662.79998779297</ele>
        <time>2012-05-30T16:41:32Z</time>
      </trkpt>
      <trkpt lat="45.37734" lon="3.74018">
        <ele>663.29998779297</ele>
        <time>2012-05-30T16:41:35Z</time>
      </trkpt>
      <trkpt lat="45.37731" lon="3.74009">
        <ele>664.29998779297</ele>
        <time>2012-05-30T16:41:38Z</time>
      </trkpt>
      <trkpt lat="45.37727" lon="3.74003">
        <ele>662.90002441406</ele>
        <time>2012-05-30T16:41:41Z</time>
      </trkpt>
      <trkpt lat="45.37723" lon="3.73997">
        <ele>664.20001220703</ele>
        <time>2012-05-30T16:41:43Z</time>
      </trkpt>
      <trkpt lat="45.37719" lon="3.73993">
        <ele>665.90979003906</ele>
        <time>2012-05-30T16:41:44Z</time>
      </trkpt>
      <trkpt lat="45.37716" lon="3.73989">
        <ele>666.20001220703</ele>
        <time>2012-05-30T16:41:46Z</time>
      </trkpt>
      <trkpt lat="45.37724" lon="3.7398">
        <ele>662.70001220703</ele>
        <time>2012-05-30T16:41:47Z</time>
      </trkpt>
      <trkpt lat="45.37721" lon="3.73968">
        <ele>659.70001220703</ele>
        <time>2012-05-30T16:41:51Z</time>
      </trkpt>
      <trkpt lat="45.37713" lon="3.73967">
        <ele>658.40002441406</ele>
        <time>2012-05-30T16:41:55Z</time>
      </trkpt>
      <trkpt lat="45.37708" lon="3.73963">
        <ele>658.59997558594</ele>
        <time>2012-05-30T16:41:57Z</time>
      </trkpt>
      <trkpt lat="45.37705" lon="3.73957">
        <ele>660.90002441406</ele>
        <time>2012-05-30T16:41:59Z</time>
      </trkpt>
      <trkpt lat="45.37701" lon="3.73953">
        <ele>662.29998779297</ele>
        <time>2012-05-30T16:42:02Z</time>
      </trkpt>
      <trkpt lat="45.37699" lon="3.73947">
        <ele>663.40002441406</ele>
        <time>2012-05-30T16:42:04Z</time>
      </trkpt>
      <trkpt lat="45.37696" lon="3.73942">
        <ele>664.59997558594</ele>
        <time>2012-05-30T16:42:06Z</time>
      </trkpt>
      <trkpt lat="45.37693" lon="3.73936">
        <ele>664.90002441406</ele>
        <time>2012-05-30T16:42:08Z</time>
      </trkpt>
      <trkpt lat="45.37691" lon="3.73929">
        <ele>665.40002441406</ele>
        <time>2012-05-30T16:42:10Z</time>
      </trkpt>
      <trkpt lat="45.37686" lon="3.73925">
        <ele>665.29998779297</ele>
        <time>2012-05-30T16:42:12Z</time>
      </trkpt>
      <trkpt lat="45.37684" lon="3.73918">
        <ele>665.79998779297</ele>
        <time>2012-05-30T16:42:14Z</time>
      </trkpt>
      <trkpt lat="45.3769" lon="3.73902">
        <ele>661.09997558594</ele>
        <time>2012-05-30T16:42:17Z</time>
      </trkpt>
      <trkpt lat="45.37683" lon="3.73899">
        <ele>661</ele>
        <time>2012-05-30T16:42:19Z</time>
      </trkpt>
      <trkpt lat="45.37677" lon="3.73892">
        <ele>662</ele>
        <time>2012-05-30T16:42:22Z</time>
      </trkpt>
      <trkpt lat="45.37679" lon="3.7388">
        <ele>658.79998779297</ele>
        <time>2012-05-30T16:42:25Z</time>
      </trkpt>
      <trkpt lat="45.37673" lon="3.73877">
        <ele>659.20001220703</ele>
        <time>2012-05-30T16:42:27Z</time>
      </trkpt>
      <trkpt lat="45.37667" lon="3.73875">
        <ele>659.5</ele>
        <time>2012-05-30T16:42:28Z</time>
      </trkpt>
      <trkpt lat="45.37663" lon="3.73872">
        <ele>659.79998779297</ele>
        <time>2012-05-30T16:42:31Z</time>
      </trkpt>
      <trkpt lat="45.37656" lon="3.73867">
        <ele>660.5</ele>
        <time>2012-05-30T16:42:34Z</time>
      </trkpt>
      <trkpt lat="45.37652" lon="3.73859">
        <ele>660.20001220703</ele>
        <time>2012-05-30T16:42:39Z</time>
      </trkpt>
      <trkpt lat="45.37649" lon="3.73851">
        <ele>660</ele>
        <time>2012-05-30T16:42:41Z</time>
      </trkpt>
      <trkpt lat="45.37645" lon="3.73847">
        <ele>659.90002441406</ele>
        <time>2012-05-30T16:42:43Z</time>
      </trkpt>
      <trkpt lat="45.37642" lon="3.73837">
        <ele>660.09997558594</ele>
        <time>2012-05-30T16:42:46Z</time>
      </trkpt>
      <trkpt lat="45.37638" lon="3.73831">
        <ele>661.09997558594</ele>
        <time>2012-05-30T16:42:49Z</time>
      </trkpt>
      <trkpt lat="45.37637" lon="3.73823">
        <ele>662.70001220703</ele>
        <time>2012-05-30T16:42:51Z</time>
      </trkpt>
      <trkpt lat="45.37634" lon="3.73817">
        <ele>663.59997558594</ele>
        <time>2012-05-30T16:42:53Z</time>
      </trkpt>
      <trkpt lat="45.37631" lon="3.7381">
        <ele>664.20001220703</ele>
        <time>2012-05-30T16:42:55Z</time>
      </trkpt>
      <trkpt lat="45.37628" lon="3.73805">
        <ele>664.59997558594</ele>
        <time>2012-05-30T16:42:57Z</time>
      </trkpt>
      <trkpt lat="45.37624" lon="3.73801">
        <ele>665.20001220703</ele>
        <time>2012-05-30T16:42:59Z</time>
      </trkpt>
      <trkpt lat="45.37622" lon="3.7379">
        <ele>667</ele>
        <time>2012-05-30T16:43:02Z</time>
      </trkpt>
      <trkpt lat="45.37619" lon="3.73783">
        <ele>665.79998779297</ele>
        <time>2012-05-30T16:43:05Z</time>
      </trkpt>
      <trkpt lat="45.37615" lon="3.73778">
        <ele>664.29998779297</ele>
        <time>2012-05-30T16:43:08Z</time>
      </trkpt>
      <trkpt lat="45.37608" lon="3.73765">
        <ele>665</ele>
        <time>2012-05-30T16:43:14Z</time>
      </trkpt>
      <trkpt lat="45.37604" lon="3.73759">
        <ele>664.70001220703</ele>
        <time>2012-05-30T16:43:16Z</time>
      </trkpt>
      <trkpt lat="45.37601" lon="3.7375">
        <ele>665.09997558594</ele>
        <time>2012-05-30T16:43:19Z</time>
      </trkpt>
      <trkpt lat="45.37598" lon="3.73743">
        <ele>664.90002441406</ele>
        <time>2012-05-30T16:43:21Z</time>
      </trkpt>
      <trkpt lat="45.37593" lon="3.73738">
        <ele>664.09997558594</ele>
        <time>2012-05-30T16:43:24Z</time>
      </trkpt>
      <trkpt lat="45.37588" lon="3.73733">
        <ele>663.90002441406</ele>
        <time>2012-05-30T16:43:27Z</time>
      </trkpt>
      <trkpt lat="45.37586" lon="3.73715">
        <ele>661.90002441406</ele>
        <time>2012-05-30T16:43:30Z</time>
      </trkpt>
      <trkpt lat="45.37582" lon="3.7371">
        <ele>660.29998779297</ele>
        <time>2012-05-30T16:43:34Z</time>
      </trkpt>
      <trkpt lat="45.37578" lon="3.73704">
        <ele>659.79998779297</ele>
        <time>2012-05-30T16:43:37Z</time>
      </trkpt>
      <trkpt lat="45.37573" lon="3.73696">
        <ele>659.29998779297</ele>
        <time>2012-05-30T16:43:40Z</time>
      </trkpt>
      <trkpt lat="45.3757" lon="3.73691">
        <ele>660.5</ele>
        <time>2012-05-30T16:43:42Z</time>
      </trkpt>
      <trkpt lat="45.37567" lon="3.73684">
        <ele>663.5</ele>
        <time>2012-05-30T16:43:45Z</time>
      </trkpt>
      <trkpt lat="45.37563" lon="3.73677">
        <ele>662.59997558594</ele>
        <time>2012-05-30T16:43:48Z</time>
      </trkpt>
      <trkpt lat="45.37561" lon="3.7367">
        <ele>660.70001220703</ele>
        <time>2012-05-30T16:43:51Z</time>
      </trkpt>
      <trkpt lat="45.37558" lon="3.73663">
        <ele>662.09997558594</ele>
        <time>2012-05-30T16:43:55Z</time>
      </trkpt>
      <trkpt lat="45.37554" lon="3.73655">
        <ele>661.90002441406</ele>
        <time>2012-05-30T16:43:58Z</time>
      </trkpt>
      <trkpt lat="45.3755" lon="3.73647">
        <ele>662.40002441406</ele>
        <time>2012-05-30T16:44:01Z</time>
      </trkpt>
      <trkpt lat="45.37547" lon="3.73639">
        <ele>664.09997558594</ele>
        <time>2012-05-30T16:44:04Z</time>
      </trkpt>
      <trkpt lat="45.37545" lon="3.73629">
        <ele>665.40002441406</ele>
        <time>2012-05-30T16:44:08Z</time>
      </trkpt>
      <trkpt lat="45.37542" lon="3.73621">
        <ele>666.20001220703</ele>
        <time>2012-05-30T16:44:11Z</time>
      </trkpt>
      <trkpt lat="45.37538" lon="3.73611">
        <ele>665.79998779297</ele>
        <time>2012-05-30T16:44:15Z</time>
      </trkpt>
      <trkpt lat="45.37536" lon="3.73603">
        <ele>666</ele>
        <time>2012-05-30T16:44:18Z</time>
      </trkpt>
      <trkpt lat="45.37536" lon="3.73585">
        <ele>665.59997558594</ele>
        <time>2012-05-30T16:44:25Z</time>
      </trkpt>
      <trkpt lat="45.37534" lon="3.73569">
        <ele>665.70001220703</ele>
        <time>2012-05-30T16:44:29Z</time>
      </trkpt>
      <trkpt lat="45.37533" lon="3.73561">
        <ele>666.20001220703</ele>
        <time>2012-05-30T16:44:32Z</time>
      </trkpt>
      <trkpt lat="45.37536" lon="3.73552">
        <ele>666.59997558594</ele>
        <time>2012-05-30T16:44:35Z</time>
      </trkpt>
      <trkpt lat="45.37536" lon="3.73545">
        <ele>667.90002441406</ele>
        <time>2012-05-30T16:44:37Z</time>
      </trkpt>
      <trkpt lat="45.37535" lon="3.73539">
        <ele>668.90002441406</ele>
        <time>2012-05-30T16:44:39Z</time>
      </trkpt>
      <trkpt lat="45.37533" lon="3.73533">
        <ele>669.20001220703</ele>
        <time>2012-05-30T16:44:41Z</time>
      </trkpt>
      <trkpt lat="45.37535" lon="3.73524">
        <ele>671.40002441406</ele>
        <time>2012-05-30T16:44:44Z</time>
      </trkpt>
      <trkpt lat="45.37534" lon="3.73517">
        <ele>671.29998779297</ele>
        <time>2012-05-30T16:44:46Z</time>
      </trkpt>
      <trkpt lat="45.37534" lon="3.73509">
        <ele>672</ele>
        <time>2012-05-30T16:44:48Z</time>
      </trkpt>
      <trkpt lat="45.37535" lon="3.735">
        <ele>671.20001220703</ele>
        <time>2012-05-30T16:44:51Z</time>
      </trkpt>
      <trkpt lat="45.37535" lon="3.73492">
        <ele>669.90002441406</ele>
        <time>2012-05-30T16:44:54Z</time>
      </trkpt>
      <trkpt lat="45.37535" lon="3.73483">
        <ele>668</ele>
        <time>2012-05-30T16:44:57Z</time>
      </trkpt>
      <trkpt lat="45.37535" lon="3.73476">
        <ele>668.40002441406</ele>
        <time>2012-05-30T16:44:59Z</time>
      </trkpt>
      <trkpt lat="45.37534" lon="3.73469">
        <ele>667.29998779297</ele>
        <time>2012-05-30T16:45:01Z</time>
      </trkpt>
      <trkpt lat="45.37534" lon="3.73462">
        <ele>667.59997558594</ele>
        <time>2012-05-30T16:45:03Z</time>
      </trkpt>
      <trkpt lat="45.37534" lon="3.73454">
        <ele>667.09997558594</ele>
        <time>2012-05-30T16:45:05Z</time>
      </trkpt>
      <trkpt lat="45.37527" lon="3.73437">
        <ele>666.70001220703</ele>
        <time>2012-05-30T16:45:12Z</time>
      </trkpt>
      <trkpt lat="45.37523" lon="3.73432">
        <ele>665.70001220703</ele>
        <time>2012-05-30T16:45:15Z</time>
      </trkpt>
      <trkpt lat="45.37522" lon="3.73423">
        <ele>665.59997558594</ele>
        <time>2012-05-30T16:45:18Z</time>
      </trkpt>
      <trkpt lat="45.37519" lon="3.73415">
        <ele>665</ele>
        <time>2012-05-30T16:45:21Z</time>
      </trkpt>
      <trkpt lat="45.37514" lon="3.73407">
        <ele>664.40002441406</ele>
        <time>2012-05-30T16:45:25Z</time>
      </trkpt>
      <trkpt lat="45.37506" lon="3.73393">
        <ele>664.70001220703</ele>
        <time>2012-05-30T16:45:29Z</time>
      </trkpt>
      <trkpt lat="45.37504" lon="3.73387">
        <ele>664.90002441406</ele>
        <time>2012-05-30T16:45:31Z</time>
      </trkpt>
      <trkpt lat="45.37503" lon="3.7338">
        <ele>664.70001220703</ele>
        <time>2012-05-30T16:45:34Z</time>
      </trkpt>
      <trkpt lat="45.37499" lon="3.73369">
        <ele>665.20001220703</ele>
        <time>2012-05-30T16:45:39Z</time>
      </trkpt>
      <trkpt lat="45.37502" lon="3.73354">
        <ele>657.70001220703</ele>
        <time>2012-05-30T16:45:44Z</time>
      </trkpt>
      <trkpt lat="45.37497" lon="3.7335">
        <ele>659.40002441406</ele>
        <time>2012-05-30T16:45:46Z</time>
      </trkpt>
      <trkpt lat="45.37493" lon="3.73347">
        <ele>659.20001220703</ele>
        <time>2012-05-30T16:45:48Z</time>
      </trkpt>
      <trkpt lat="45.37488" lon="3.73341">
        <ele>660</ele>
        <time>2012-05-30T16:45:51Z</time>
      </trkpt>
      <trkpt lat="45.37481" lon="3.73339">
        <ele>660.70001220703</ele>
        <time>2012-05-30T16:45:54Z</time>
      </trkpt>
      <trkpt lat="45.37468" lon="3.73331">
        <ele>660</ele>
        <time>2012-05-30T16:46:00Z</time>
      </trkpt>
      <trkpt lat="45.37462" lon="3.73327">
        <ele>661.29998779297</ele>
        <time>2012-05-30T16:46:03Z</time>
      </trkpt>
      <trkpt lat="45.37459" lon="3.73321">
        <ele>662</ele>
        <time>2012-05-30T16:46:06Z</time>
      </trkpt>
      <trkpt lat="45.37456" lon="3.73316">
        <ele>664.90002441406</ele>
        <time>2012-05-30T16:46:10Z</time>
      </trkpt>
      <trkpt lat="45.37452" lon="3.73311">
        <ele>667.70001220703</ele>
        <time>2012-05-30T16:46:12Z</time>
      </trkpt>
      <trkpt lat="45.37447" lon="3.73307">
        <ele>668</ele>
        <time>2012-05-30T16:46:15Z</time>
      </trkpt>
      <trkpt lat="45.37442" lon="3.73304">
        <ele>668.5</ele>
        <time>2012-05-30T16:46:17Z</time>
      </trkpt>
      <trkpt lat="45.37433" lon="3.73304">
        <ele>667.5</ele>
        <time>2012-05-30T16:46:20Z</time>
      </trkpt>
      <trkpt lat="45.37425" lon="3.73295">
        <ele>667.70001220703</ele>
        <time>2012-05-30T16:46:27Z</time>
      </trkpt>
      <trkpt lat="45.37414" lon="3.73294">
        <ele>666.5</ele>
        <time>2012-05-30T16:46:31Z</time>
      </trkpt>
      <trkpt lat="45.3741" lon="3.73289">
        <ele>666.70001220703</ele>
        <time>2012-05-30T16:46:34Z</time>
      </trkpt>
      <trkpt lat="45.37408" lon="3.73281">
        <ele>668.79998779297</ele>
        <time>2012-05-30T16:46:37Z</time>
      </trkpt>
      <trkpt lat="45.37406" lon="3.73274">
        <ele>671.20001220703</ele>
        <time>2012-05-30T16:46:41Z</time>
      </trkpt>
      <trkpt lat="45.37403" lon="3.73267">
        <ele>674.09997558594</ele>
        <time>2012-05-30T16:46:45Z</time>
      </trkpt>
      <trkpt lat="45.374" lon="3.73262">
        <ele>675.40002441406</ele>
        <time>2012-05-30T16:46:48Z</time>
      </trkpt>
      <trkpt lat="45.37397" lon="3.73255">
        <ele>674.79998779297</ele>
        <time>2012-05-30T16:46:52Z</time>
      </trkpt>
      <trkpt lat="45.37396" lon="3.73248">
        <ele>675.20001220703</ele>
        <time>2012-05-30T16:46:55Z</time>
      </trkpt>
      <trkpt lat="45.37393" lon="3.73237">
        <ele>673.79998779297</ele>
        <time>2012-05-30T16:46:58Z</time>
      </trkpt>
      <trkpt lat="45.37392" lon="3.73228">
        <ele>671.59997558594</ele>
        <time>2012-05-30T16:47:02Z</time>
      </trkpt>
      <trkpt lat="45.37392" lon="3.7322">
        <ele>671.20001220703</ele>
        <time>2012-05-30T16:47:05Z</time>
      </trkpt>
      <trkpt lat="45.3739" lon="3.73212">
        <ele>671.79998779297</ele>
        <time>2012-05-30T16:47:09Z</time>
      </trkpt>
      <trkpt lat="45.37388" lon="3.73202">
        <ele>671.90002441406</ele>
        <time>2012-05-30T16:47:12Z</time>
      </trkpt>
      <trkpt lat="45.37388" lon="3.73193">
        <ele>672.59997558594</ele>
        <time>2012-05-30T16:47:16Z</time>
      </trkpt>
      <trkpt lat="45.37385" lon="3.73188">
        <ele>673.70001220703</ele>
        <time>2012-05-30T16:47:18Z</time>
      </trkpt>
      <trkpt lat="45.37382" lon="3.7318">
        <ele>674.40002441406</ele>
        <time>2012-05-30T16:47:21Z</time>
      </trkpt>
      <trkpt lat="45.3738" lon="3.73173">
        <ele>674.79998779297</ele>
        <time>2012-05-30T16:47:24Z</time>
      </trkpt>
      <trkpt lat="45.37379" lon="3.73157">
        <ele>673</ele>
        <time>2012-05-30T16:47:29Z</time>
      </trkpt>
      <trkpt lat="45.37379" lon="3.73145">
        <ele>674.40002441406</ele>
        <time>2012-05-30T16:47:33Z</time>
      </trkpt>
      <trkpt lat="45.37376" lon="3.73135">
        <ele>672.5</ele>
        <time>2012-05-30T16:47:35Z</time>
      </trkpt>
      <trkpt lat="45.37374" lon="3.73125">
        <ele>675.90002441406</ele>
        <time>2012-05-30T16:47:38Z</time>
      </trkpt>
      <trkpt lat="45.37377" lon="3.73116">
        <ele>674.79998779297</ele>
        <time>2012-05-30T16:47:40Z</time>
      </trkpt>
      <trkpt lat="45.37374" lon="3.73106">
        <ele>673</ele>
        <time>2012-05-30T16:47:43Z</time>
      </trkpt>
      <trkpt lat="45.37372" lon="3.73097">
        <ele>675.59997558594</ele>
        <time>2012-05-30T16:47:45Z</time>
      </trkpt>
      <trkpt lat="45.37368" lon="3.73094">
        <ele>673.29998779297</ele>
        <time>2012-05-30T16:47:48Z</time>
      </trkpt>
      <trkpt lat="45.37363" lon="3.73088">
        <ele>671.79998779297</ele>
        <time>2012-05-30T16:47:51Z</time>
      </trkpt>
      <trkpt lat="45.37359" lon="3.73082">
        <ele>671.29998779297</ele>
        <time>2012-05-30T16:47:54Z</time>
      </trkpt>
      <trkpt lat="45.37354" lon="3.73077">
        <ele>670.5</ele>
        <time>2012-05-30T16:47:57Z</time>
      </trkpt>
      <trkpt lat="45.37348" lon="3.73073">
        <ele>668.59997558594</ele>
        <time>2012-05-30T16:48:00Z</time>
      </trkpt>
      <trkpt lat="45.37334" lon="3.73057">
        <ele>665</ele>
        <time>2012-05-30T16:48:10Z</time>
      </trkpt>
      <trkpt lat="45.37333" lon="3.73049">
        <ele>666.59997558594</ele>
        <time>2012-05-30T16:48:13Z</time>
      </trkpt>
      <trkpt lat="45.37318" lon="3.73043">
        <ele>668.20001220703</ele>
        <time>2012-05-30T16:48:21Z</time>
      </trkpt>
      <trkpt lat="45.37315" lon="3.73037">
        <ele>666.40002441406</ele>
        <time>2012-05-30T16:48:22Z</time>
      </trkpt>
      <trkpt lat="45.37315" lon="3.73028">
        <ele>667.79998779297</ele>
        <time>2012-05-30T16:48:25Z</time>
      </trkpt>
      <trkpt lat="45.37318" lon="3.73022">
        <ele>667.90002441406</ele>
        <time>2012-05-30T16:48:26Z</time>
      </trkpt>
      <trkpt lat="45.37314" lon="3.73018">
        <ele>670</ele>
        <time>2012-05-30T16:48:30Z</time>
      </trkpt>
      <trkpt lat="45.37309" lon="3.73013">
        <ele>669.90002441406</ele>
        <time>2012-05-30T16:48:33Z</time>
      </trkpt>
      <trkpt lat="45.37304" lon="3.7301">
        <ele>668.90002441406</ele>
        <time>2012-05-30T16:48:35Z</time>
      </trkpt>
      <trkpt lat="45.37296" lon="3.72999">
        <ele>668.59997558594</ele>
        <time>2012-05-30T16:48:39Z</time>
      </trkpt>
      <trkpt lat="45.37291" lon="3.72988">
        <ele>668.40002441406</ele>
        <time>2012-05-30T16:48:43Z</time>
      </trkpt>
      <trkpt lat="45.37284" lon="3.72985">
        <ele>668.20001220703</ele>
        <time>2012-05-30T16:48:46Z</time>
      </trkpt>
      <trkpt lat="45.37278" lon="3.72985">
        <ele>666.90002441406</ele>
        <time>2012-05-30T16:48:50Z</time>
      </trkpt>
      <trkpt lat="45.37274" lon="3.72982">
        <ele>666.5</ele>
        <time>2012-05-30T16:48:53Z</time>
      </trkpt>
      <trkpt lat="45.3727" lon="3.72976">
        <ele>667.20001220703</ele>
        <time>2012-05-30T16:48:57Z</time>
      </trkpt>
      <trkpt lat="45.37267" lon="3.72971">
        <ele>666.40002441406</ele>
        <time>2012-05-30T16:48:58Z</time>
      </trkpt>
      <trkpt lat="45.37261" lon="3.72969">
        <ele>666.20001220703</ele>
        <time>2012-05-30T16:49:02Z</time>
      </trkpt>
      <trkpt lat="45.37257" lon="3.72967">
        <ele>667.09997558594</ele>
        <time>2012-05-30T16:49:05Z</time>
      </trkpt>
      <trkpt lat="45.37251" lon="3.72963">
        <ele>666.40002441406</ele>
        <time>2012-05-30T16:49:10Z</time>
      </trkpt>
      <trkpt lat="45.37245" lon="3.72956">
        <ele>666.29998779297</ele>
        <time>2012-05-30T16:49:13Z</time>
      </trkpt>
      <trkpt lat="45.37241" lon="3.72949">
        <ele>667.20001220703</ele>
        <time>2012-05-30T16:49:15Z</time>
      </trkpt>
      <trkpt lat="45.37238" lon="3.72941">
        <ele>667</ele>
        <time>2012-05-30T16:49:17Z</time>
      </trkpt>
      <trkpt lat="45.37237" lon="3.72934">
        <ele>667.29998779297</ele>
        <time>2012-05-30T16:49:20Z</time>
      </trkpt>
      <trkpt lat="45.37237" lon="3.72928">
        <ele>665.94610595703</ele>
        <time>2012-05-30T16:49:21Z</time>
      </trkpt>
      <trkpt lat="45.37234" lon="3.72914">
        <ele>664.79998779297</ele>
        <time>2012-05-30T16:49:25Z</time>
      </trkpt>
      <trkpt lat="45.3723" lon="3.72909">
        <ele>666.5</ele>
        <time>2012-05-30T16:49:29Z</time>
      </trkpt>
      <trkpt lat="45.37215" lon="3.72911">
        <ele>665.79998779297</ele>
        <time>2012-05-30T16:49:34Z</time>
      </trkpt>
      <trkpt lat="45.37212" lon="3.72905">
        <ele>664.79998779297</ele>
        <time>2012-05-30T16:49:38Z</time>
      </trkpt>
      <trkpt lat="45.37216" lon="3.72897">
        <ele>662.90002441406</ele>
        <time>2012-05-30T16:49:40Z</time>
      </trkpt>
      <trkpt lat="45.37214" lon="3.7289">
        <ele>661.79998779297</ele>
        <time>2012-05-30T16:49:44Z</time>
      </trkpt>
      <trkpt lat="45.37209" lon="3.72894">
        <ele>661.90002441406</ele>
        <time>2012-05-30T16:49:50Z</time>
      </trkpt>
      <trkpt lat="45.37213" lon="3.72898">
        <ele>662</ele>
        <time>2012-05-30T16:49:54Z</time>
      </trkpt>
      <trkpt lat="45.37213" lon="3.72908">
        <ele>662.70001220703</ele>
        <time>2012-05-30T16:49:59Z</time>
      </trkpt>
      <trkpt lat="45.37217" lon="3.72911">
        <ele>662.79998779297</ele>
        <time>2012-05-30T16:50:02Z</time>
      </trkpt>
      <trkpt lat="45.37223" lon="3.72917">
        <ele>662.90002441406</ele>
        <time>2012-05-30T16:50:05Z</time>
      </trkpt>
      <trkpt lat="45.37228" lon="3.72919">
        <ele>665.29998779297</ele>
        <time>2012-05-30T16:50:10Z</time>
      </trkpt>
      <trkpt lat="45.37232" lon="3.72928">
        <ele>664.79998779297</ele>
        <time>2012-05-30T16:50:15Z</time>
      </trkpt>
      <trkpt lat="45.37236" lon="3.72933">
        <ele>665.09997558594</ele>
        <time>2012-05-30T16:50:18Z</time>
      </trkpt>
      <trkpt lat="45.37243" lon="3.72941">
        <ele>665.59997558594</ele>
        <time>2012-05-30T16:50:21Z</time>
      </trkpt>
      <trkpt lat="45.37249" lon="3.72948">
        <ele>665.59997558594</ele>
        <time>2012-05-30T16:50:23Z</time>
      </trkpt>
      <trkpt lat="45.37249" lon="3.72956">
        <ele>666</ele>
        <time>2012-05-30T16:50:26Z</time>
      </trkpt>
      <trkpt lat="45.37253" lon="3.72962">
        <ele>665.90002441406</ele>
        <time>2012-05-30T16:50:29Z</time>
      </trkpt>
      <trkpt lat="45.37257" lon="3.72968">
        <ele>665.79998779297</ele>
        <time>2012-05-30T16:50:32Z</time>
      </trkpt>
      <trkpt lat="45.37264" lon="3.72969">
        <ele>665.59997558594</ele>
        <time>2012-05-30T16:50:34Z</time>
      </trkpt>
      <trkpt lat="45.37271" lon="3.72976">
        <ele>666</ele>
        <time>2012-05-30T16:50:37Z</time>
      </trkpt>
      <trkpt lat="45.37277" lon="3.72982">
        <ele>666.59997558594</ele>
        <time>2012-05-30T16:50:40Z</time>
      </trkpt>
      <trkpt lat="45.37282" lon="3.7298">
        <ele>666.09997558594</ele>
        <time>2012-05-30T16:50:42Z</time>
      </trkpt>
      <trkpt lat="45.37287" lon="3.72984">
        <ele>666.20001220703</ele>
        <time>2012-05-30T16:50:44Z</time>
      </trkpt>
      <trkpt lat="45.37291" lon="3.72987">
        <ele>667</ele>
        <time>2012-05-30T16:50:46Z</time>
      </trkpt>
      <trkpt lat="45.37294" lon="3.72993">
        <ele>667.09997558594</ele>
        <time>2012-05-30T16:50:48Z</time>
      </trkpt>
      <trkpt lat="45.37299" lon="3.72997">
        <ele>667.09997558594</ele>
        <time>2012-05-30T16:50:51Z</time>
      </trkpt>
      <trkpt lat="45.37304" lon="3.73003">
        <ele>667.29998779297</ele>
        <time>2012-05-30T16:50:53Z</time>
      </trkpt>
      <trkpt lat="45.3731" lon="3.73006">
        <ele>667.5</ele>
        <time>2012-05-30T16:50:55Z</time>
      </trkpt>
      <trkpt lat="45.37312" lon="3.73013">
        <ele>666.90002441406</ele>
        <time>2012-05-30T16:50:57Z</time>
      </trkpt>
      <trkpt lat="45.37315" lon="3.73019">
        <ele>667.20001220703</ele>
        <time>2012-05-30T16:50:59Z</time>
      </trkpt>
      <trkpt lat="45.3732" lon="3.73023">
        <ele>669.09997558594</ele>
        <time>2012-05-30T16:51:02Z</time>
      </trkpt>
      <trkpt lat="45.37327" lon="3.7303">
        <ele>668.5</ele>
        <time>2012-05-30T16:51:05Z</time>
      </trkpt>
      <trkpt lat="45.37331" lon="3.73032">
        <ele>668.20001220703</ele>
        <time>2012-05-30T16:51:06Z</time>
      </trkpt>
      <trkpt lat="45.37335" lon="3.73039">
        <ele>668.20001220703</ele>
        <time>2012-05-30T16:51:09Z</time>
      </trkpt>
      <trkpt lat="45.37341" lon="3.73051">
        <ele>668.09997558594</ele>
        <time>2012-05-30T16:51:13Z</time>
      </trkpt>
      <trkpt lat="45.37346" lon="3.7306">
        <ele>668.09997558594</ele>
        <time>2012-05-30T16:51:16Z</time>
      </trkpt>
      <trkpt lat="45.37348" lon="3.73065">
        <ele>668.70001220703</ele>
        <time>2012-05-30T16:51:18Z</time>
      </trkpt>
      <trkpt lat="45.37353" lon="3.73074">
        <ele>668.29998779297</ele>
        <time>2012-05-30T16:51:21Z</time>
      </trkpt>
      <trkpt lat="45.37355" lon="3.73081">
        <ele>667.59997558594</ele>
        <time>2012-05-30T16:51:24Z</time>
      </trkpt>
      <trkpt lat="45.37357" lon="3.7309">
        <ele>668.70001220703</ele>
        <time>2012-05-30T16:51:27Z</time>
      </trkpt>
      <trkpt lat="45.37361" lon="3.73094">
        <ele>667.79998779297</ele>
        <time>2012-05-30T16:51:29Z</time>
      </trkpt>
      <trkpt lat="45.37363" lon="3.73101">
        <ele>667</ele>
        <time>2012-05-30T16:51:31Z</time>
      </trkpt>
      <trkpt lat="45.37365" lon="3.7311">
        <ele>667.40002441406</ele>
        <time>2012-05-30T16:51:34Z</time>
      </trkpt>
      <trkpt lat="45.37363" lon="3.73117">
        <ele>667.09997558594</ele>
        <time>2012-05-30T16:51:36Z</time>
      </trkpt>
      <trkpt lat="45.37366" lon="3.73125">
        <ele>667.59997558594</ele>
        <time>2012-05-30T16:51:39Z</time>
      </trkpt>
      <trkpt lat="45.37366" lon="3.73134">
        <ele>667.90002441406</ele>
        <time>2012-05-30T16:51:43Z</time>
      </trkpt>
      <trkpt lat="45.37364" lon="3.73149">
        <ele>666.59997558594</ele>
        <time>2012-05-30T16:51:50Z</time>
      </trkpt>
      <trkpt lat="45.37362" lon="3.73156">
        <ele>666.20001220703</ele>
        <time>2012-05-30T16:51:52Z</time>
      </trkpt>
      <trkpt lat="45.3737" lon="3.7316">
        <ele>666.40002441406</ele>
        <time>2012-05-30T16:51:55Z</time>
      </trkpt>
      <trkpt lat="45.37369" lon="3.73168">
        <ele>667.59997558594</ele>
        <time>2012-05-30T16:51:58Z</time>
      </trkpt>
      <trkpt lat="45.3737" lon="3.73175">
        <ele>666.70001220703</ele>
        <time>2012-05-30T16:52:00Z</time>
      </trkpt>
      <trkpt lat="45.37372" lon="3.73185">
        <ele>665.40002441406</ele>
        <time>2012-05-30T16:52:03Z</time>
      </trkpt>
      <trkpt lat="45.37373" lon="3.73193">
        <ele>665.09997558594</ele>
        <time>2012-05-30T16:52:06Z</time>
      </trkpt>
      <trkpt lat="45.37377" lon="3.732">
        <ele>665.40002441406</ele>
        <time>2012-05-30T16:52:09Z</time>
      </trkpt>
      <trkpt lat="45.37377" lon="3.73208">
        <ele>664.90002441406</ele>
        <time>2012-05-30T16:52:12Z</time>
      </trkpt>
      <trkpt lat="45.37378" lon="3.73217">
        <ele>664.90002441406</ele>
        <time>2012-05-30T16:52:15Z</time>
      </trkpt>
      <trkpt lat="45.37379" lon="3.73224">
        <ele>665.70001220703</ele>
        <time>2012-05-30T16:52:19Z</time>
      </trkpt>
      <trkpt lat="45.3738" lon="3.73236">
        <ele>666.40002441406</ele>
        <time>2012-05-30T16:52:23Z</time>
      </trkpt>
      <trkpt lat="45.37383" lon="3.73242">
        <ele>668.09997558594</ele>
        <time>2012-05-30T16:52:26Z</time>
      </trkpt>
      <trkpt lat="45.37385" lon="3.7325">
        <ele>669.20001220703</ele>
        <time>2012-05-30T16:52:30Z</time>
      </trkpt>
      <trkpt lat="45.37388" lon="3.7326">
        <ele>670.09997558594</ele>
        <time>2012-05-30T16:52:33Z</time>
      </trkpt>
      <trkpt lat="45.37387" lon="3.7327">
        <ele>670.40002441406</ele>
        <time>2012-05-30T16:52:37Z</time>
      </trkpt>
      <trkpt lat="45.37392" lon="3.73272">
        <ele>670.90002441406</ele>
        <time>2012-05-30T16:52:39Z</time>
      </trkpt>
      <trkpt lat="45.37398" lon="3.73275">
        <ele>672.79998779297</ele>
        <time>2012-05-30T16:52:41Z</time>
      </trkpt>
      <trkpt lat="45.37404" lon="3.73279">
        <ele>673.20001220703</ele>
        <time>2012-05-30T16:52:43Z</time>
      </trkpt>
      <trkpt lat="45.37409" lon="3.73281">
        <ele>673.59997558594</ele>
        <time>2012-05-30T16:52:47Z</time>
      </trkpt>
      <trkpt lat="45.37413" lon="3.73284">
        <ele>673.90002441406</ele>
        <time>2012-05-30T16:52:51Z</time>
      </trkpt>
      <trkpt lat="45.37416" lon="3.73293">
        <ele>673.29998779297</ele>
        <time>2012-05-30T16:52:55Z</time>
      </trkpt>
      <trkpt lat="45.37423" lon="3.73303">
        <ele>674</ele>
        <time>2012-05-30T16:52:57Z</time>
      </trkpt>
      <trkpt lat="45.37431" lon="3.73308">
        <ele>672.79998779297</ele>
        <time>2012-05-30T16:52:59Z</time>
      </trkpt>
      <trkpt lat="45.37434" lon="3.73317">
        <ele>670.20001220703</ele>
        <time>2012-05-30T16:53:01Z</time>
      </trkpt>
      <trkpt lat="45.37438" lon="3.73319">
        <ele>670.79998779297</ele>
        <time>2012-05-30T16:53:02Z</time>
      </trkpt>
      <trkpt lat="45.37445" lon="3.73323">
        <ele>668.5</ele>
        <time>2012-05-30T16:53:04Z</time>
      </trkpt>
      <trkpt lat="45.37451" lon="3.73328">
        <ele>668.70001220703</ele>
        <time>2012-05-30T16:53:06Z</time>
      </trkpt>
      <trkpt lat="45.37458" lon="3.73333">
        <ele>667.09997558594</ele>
        <time>2012-05-30T16:53:09Z</time>
      </trkpt>
      <trkpt lat="45.37463" lon="3.73338">
        <ele>667</ele>
        <time>2012-05-30T16:53:11Z</time>
      </trkpt>
      <trkpt lat="45.37468" lon="3.73342">
        <ele>667.5</ele>
        <time>2012-05-30T16:53:13Z</time>
      </trkpt>
      <trkpt lat="45.37472" lon="3.73346">
        <ele>667.59997558594</ele>
        <time>2012-05-30T16:53:15Z</time>
      </trkpt>
      <trkpt lat="45.37478" lon="3.73347">
        <ele>667.5</ele>
        <time>2012-05-30T16:53:17Z</time>
      </trkpt>
      <trkpt lat="45.37484" lon="3.73351">
        <ele>667</ele>
        <time>2012-05-30T16:53:19Z</time>
      </trkpt>
      <trkpt lat="45.37488" lon="3.73355">
        <ele>666.59997558594</ele>
        <time>2012-05-30T16:53:22Z</time>
      </trkpt>
      <trkpt lat="45.37492" lon="3.73359">
        <ele>665.09997558594</ele>
        <time>2012-05-30T16:53:25Z</time>
      </trkpt>
      <trkpt lat="45.37498" lon="3.73364">
        <ele>665.59997558594</ele>
        <time>2012-05-30T16:53:27Z</time>
      </trkpt>
      <trkpt lat="45.375" lon="3.73373">
        <ele>663.79998779297</ele>
        <time>2012-05-30T16:53:31Z</time>
      </trkpt>
      <trkpt lat="45.37503" lon="3.73378">
        <ele>663.59997558594</ele>
        <time>2012-05-30T16:53:33Z</time>
      </trkpt>
      <trkpt lat="45.37506" lon="3.73395">
        <ele>661.29998779297</ele>
        <time>2012-05-30T16:53:37Z</time>
      </trkpt>
      <trkpt lat="45.37511" lon="3.73401">
        <ele>661.5</ele>
        <time>2012-05-30T16:53:39Z</time>
      </trkpt>
      <trkpt lat="45.37512" lon="3.73409">
        <ele>661.5</ele>
        <time>2012-05-30T16:53:42Z</time>
      </trkpt>
      <trkpt lat="45.37514" lon="3.73416">
        <ele>662.20001220703</ele>
        <time>2012-05-30T16:53:44Z</time>
      </trkpt>
      <trkpt lat="45.37518" lon="3.73422">
        <ele>662.09997558594</ele>
        <time>2012-05-30T16:53:47Z</time>
      </trkpt>
      <trkpt lat="45.37521" lon="3.7343">
        <ele>662.09997558594</ele>
        <time>2012-05-30T16:53:50Z</time>
      </trkpt>
      <trkpt lat="45.37525" lon="3.7344">
        <ele>662.20001220703</ele>
        <time>2012-05-30T16:53:53Z</time>
      </trkpt>
      <trkpt lat="45.37526" lon="3.73447">
        <ele>662.40002441406</ele>
        <time>2012-05-30T16:53:55Z</time>
      </trkpt>
      <trkpt lat="45.37528" lon="3.73457">
        <ele>662.20001220703</ele>
        <time>2012-05-30T16:53:58Z</time>
      </trkpt>
      <trkpt lat="45.37532" lon="3.73459">
        <ele>662.5</ele>
        <time>2012-05-30T16:53:59Z</time>
      </trkpt>
      <trkpt lat="45.3753" lon="3.73465">
        <ele>664.90002441406</ele>
        <time>2012-05-30T16:54:02Z</time>
      </trkpt>
      <trkpt lat="45.37528" lon="3.73472">
        <ele>666</ele>
        <time>2012-05-30T16:54:04Z</time>
      </trkpt>
      <trkpt lat="45.37528" lon="3.7348">
        <ele>665</ele>
        <time>2012-05-30T16:54:07Z</time>
      </trkpt>
      <trkpt lat="45.37528" lon="3.73491">
        <ele>661.90002441406</ele>
        <time>2012-05-30T16:54:12Z</time>
      </trkpt>
      <trkpt lat="45.37527" lon="3.73498">
        <ele>662.79998779297</ele>
        <time>2012-05-30T16:54:14Z</time>
      </trkpt>
      <trkpt lat="45.37526" lon="3.73506">
        <ele>661.90002441406</ele>
        <time>2012-05-30T16:54:16Z</time>
      </trkpt>
      <trkpt lat="45.37526" lon="3.73513">
        <ele>661.70001220703</ele>
        <time>2012-05-30T16:54:19Z</time>
      </trkpt>
      <trkpt lat="45.37524" lon="3.7352">
        <ele>661.40002441406</ele>
        <time>2012-05-30T16:54:21Z</time>
      </trkpt>
      <trkpt lat="45.37522" lon="3.73527">
        <ele>660.20001220703</ele>
        <time>2012-05-30T16:54:25Z</time>
      </trkpt>
      <trkpt lat="45.37522" lon="3.7354">
        <ele>659.90002441406</ele>
        <time>2012-05-30T16:54:30Z</time>
      </trkpt>
      <trkpt lat="45.37521" lon="3.73547">
        <ele>660</ele>
        <time>2012-05-30T16:54:32Z</time>
      </trkpt>
      <trkpt lat="45.37522" lon="3.73557">
        <ele>660.20001220703</ele>
        <time>2012-05-30T16:54:36Z</time>
      </trkpt>
      <trkpt lat="45.37523" lon="3.73565">
        <ele>661</ele>
        <time>2012-05-30T16:54:37Z</time>
      </trkpt>
      <trkpt lat="45.37525" lon="3.7357">
        <ele>661.29998779297</ele>
        <time>2012-05-30T16:54:39Z</time>
      </trkpt>
      <trkpt lat="45.37528" lon="3.73579">
        <ele>662.79998779297</ele>
        <time>2012-05-30T16:54:42Z</time>
      </trkpt>
      <trkpt lat="45.37528" lon="3.73589">
        <ele>662.09997558594</ele>
        <time>2012-05-30T16:54:45Z</time>
      </trkpt>
      <trkpt lat="45.37528" lon="3.73596">
        <ele>662.59997558594</ele>
        <time>2012-05-30T16:54:48Z</time>
      </trkpt>
      <trkpt lat="45.3753" lon="3.73605">
        <ele>661.59997558594</ele>
        <time>2012-05-30T16:54:50Z</time>
      </trkpt>
      <trkpt lat="45.37532" lon="3.73613">
        <ele>661.40002441406</ele>
        <time>2012-05-30T16:54:53Z</time>
      </trkpt>
      <trkpt lat="45.37534" lon="3.73619">
        <ele>661.29998779297</ele>
        <time>2012-05-30T16:54:55Z</time>
      </trkpt>
      <trkpt lat="45.37537" lon="3.73629">
        <ele>661.20001220703</ele>
        <time>2012-05-30T16:54:59Z</time>
      </trkpt>
      <trkpt lat="45.37538" lon="3.73637">
        <ele>660.29998779297</ele>
        <time>2012-05-30T16:55:02Z</time>
      </trkpt>
      <trkpt lat="45.37544" lon="3.73658">
        <ele>660.29998779297</ele>
        <time>2012-05-30T16:55:09Z</time>
      </trkpt>
      <trkpt lat="45.37549" lon="3.73663">
        <ele>661</ele>
        <time>2012-05-30T16:55:11Z</time>
      </trkpt>
      <trkpt lat="45.37553" lon="3.73669">
        <ele>662.09997558594</ele>
        <time>2012-05-30T16:55:13Z</time>
      </trkpt>
      <trkpt lat="45.37557" lon="3.73676">
        <ele>662.29998779297</ele>
        <time>2012-05-30T16:55:16Z</time>
      </trkpt>
      <trkpt lat="45.3756" lon="3.73681">
        <ele>662.59997558594</ele>
        <time>2012-05-30T16:55:18Z</time>
      </trkpt>
      <trkpt lat="45.37564" lon="3.73688">
        <ele>662.5</ele>
        <time>2012-05-30T16:55:21Z</time>
      </trkpt>
      <trkpt lat="45.37567" lon="3.73694">
        <ele>662.90002441406</ele>
        <time>2012-05-30T16:55:23Z</time>
      </trkpt>
      <trkpt lat="45.37572" lon="3.73704">
        <ele>663.29998779297</ele>
        <time>2012-05-30T16:55:27Z</time>
      </trkpt>
      <trkpt lat="45.37577" lon="3.7371">
        <ele>662.20001220703</ele>
        <time>2012-05-30T16:55:29Z</time>
      </trkpt>
      <trkpt lat="45.37579" lon="3.73716">
        <ele>663.20001220703</ele>
        <time>2012-05-30T16:55:32Z</time>
      </trkpt>
      <trkpt lat="45.37583" lon="3.73723">
        <ele>663.79998779297</ele>
        <time>2012-05-30T16:55:35Z</time>
      </trkpt>
      <trkpt lat="45.3759" lon="3.73733">
        <ele>663.20001220703</ele>
        <time>2012-05-30T16:55:40Z</time>
      </trkpt>
      <trkpt lat="45.37598" lon="3.73742">
        <ele>662.79998779297</ele>
        <time>2012-05-30T16:55:44Z</time>
      </trkpt>
      <trkpt lat="45.37602" lon="3.73745">
        <ele>663</ele>
        <time>2012-05-30T16:55:46Z</time>
      </trkpt>
      <trkpt lat="45.37606" lon="3.73757">
        <ele>665.09997558594</ele>
        <time>2012-05-30T16:55:51Z</time>
      </trkpt>
      <trkpt lat="45.37608" lon="3.73764">
        <ele>665.70001220703</ele>
        <time>2012-05-30T16:55:53Z</time>
      </trkpt>
      <trkpt lat="45.37612" lon="3.73769">
        <ele>665.59997558594</ele>
        <time>2012-05-30T16:55:56Z</time>
      </trkpt>
      <trkpt lat="45.37616" lon="3.73774">
        <ele>666.59997558594</ele>
        <time>2012-05-30T16:55:59Z</time>
      </trkpt>
      <trkpt lat="45.3762" lon="3.73781">
        <ele>666.09997558594</ele>
        <time>2012-05-30T16:56:01Z</time>
      </trkpt>
      <trkpt lat="45.37625" lon="3.7379">
        <ele>667</ele>
        <time>2012-05-30T16:56:04Z</time>
      </trkpt>
      <trkpt lat="45.37629" lon="3.73794">
        <ele>668.09997558594</ele>
        <time>2012-05-30T16:56:06Z</time>
      </trkpt>
      <trkpt lat="45.37632" lon="3.73799">
        <ele>668.90002441406</ele>
        <time>2012-05-30T16:56:09Z</time>
      </trkpt>
      <trkpt lat="45.37635" lon="3.73805">
        <ele>669.20001220703</ele>
        <time>2012-05-30T16:56:12Z</time>
      </trkpt>
      <trkpt lat="45.37637" lon="3.73813">
        <ele>669.20001220703</ele>
        <time>2012-05-30T16:56:16Z</time>
      </trkpt>
      <trkpt lat="45.37642" lon="3.73822">
        <ele>669</ele>
        <time>2012-05-30T16:56:20Z</time>
      </trkpt>
      <trkpt lat="45.37646" lon="3.73827">
        <ele>669.40002441406</ele>
        <time>2012-05-30T16:56:22Z</time>
      </trkpt>
      <trkpt lat="45.37649" lon="3.73832">
        <ele>669.40002441406</ele>
        <time>2012-05-30T16:56:24Z</time>
      </trkpt>
      <trkpt lat="45.3765" lon="3.7384">
        <ele>669.29998779297</ele>
        <time>2012-05-30T16:56:27Z</time>
      </trkpt>
      <trkpt lat="45.37651" lon="3.73847">
        <ele>669.5</ele>
        <time>2012-05-30T16:56:29Z</time>
      </trkpt>
      <trkpt lat="45.37655" lon="3.73852">
        <ele>669.40002441406</ele>
        <time>2012-05-30T16:56:32Z</time>
      </trkpt>
      <trkpt lat="45.37659" lon="3.7386">
        <ele>669.20001220703</ele>
        <time>2012-05-30T16:56:35Z</time>
      </trkpt>
      <trkpt lat="45.37663" lon="3.73866">
        <ele>669.90002441406</ele>
        <time>2012-05-30T16:56:38Z</time>
      </trkpt>
      <trkpt lat="45.37665" lon="3.73872">
        <ele>669.09997558594</ele>
        <time>2012-05-30T16:56:41Z</time>
      </trkpt>
      <trkpt lat="45.37673" lon="3.73882">
        <ele>670.5</ele>
        <time>2012-05-30T16:56:46Z</time>
      </trkpt>
      <trkpt lat="45.37677" lon="3.7389">
        <ele>670.90002441406</ele>
        <time>2012-05-30T16:56:52Z</time>
      </trkpt>
      <trkpt lat="45.37678" lon="3.73898">
        <ele>672.5</ele>
        <time>2012-05-30T16:56:56Z</time>
      </trkpt>
      <trkpt lat="45.3768" lon="3.73906">
        <ele>672.5</ele>
        <time>2012-05-30T16:57:00Z</time>
      </trkpt>
      <trkpt lat="45.37682" lon="3.73912">
        <ele>673.59997558594</ele>
        <time>2012-05-30T16:57:03Z</time>
      </trkpt>
      <trkpt lat="45.37686" lon="3.73918">
        <ele>672.70001220703</ele>
        <time>2012-05-30T16:57:06Z</time>
      </trkpt>
      <trkpt lat="45.37691" lon="3.73924">
        <ele>674.29998779297</ele>
        <time>2012-05-30T16:57:11Z</time>
      </trkpt>
      <trkpt lat="45.37694" lon="3.73931">
        <ele>674.20001220703</ele>
        <time>2012-05-30T16:57:15Z</time>
      </trkpt>
      <trkpt lat="45.37698" lon="3.73939">
        <ele>673.70001220703</ele>
        <time>2012-05-30T16:57:18Z</time>
      </trkpt>
      <trkpt lat="45.37704" lon="3.73954">
        <ele>672.5</ele>
        <time>2012-05-30T16:57:25Z</time>
      </trkpt>
      <trkpt lat="45.37703" lon="3.73962">
        <ele>672.90002441406</ele>
        <time>2012-05-30T16:57:31Z</time>
      </trkpt>
      <trkpt lat="45.37706" lon="3.73969">
        <ele>674.20001220703</ele>
        <time>2012-05-30T16:57:35Z</time>
      </trkpt>
      <trkpt lat="45.3771" lon="3.73974">
        <ele>675.70001220703</ele>
        <time>2012-05-30T16:57:39Z</time>
      </trkpt>
      <trkpt lat="45.37713" lon="3.73982">
        <ele>674.29998779297</ele>
        <time>2012-05-30T16:57:43Z</time>
      </trkpt>
      <trkpt lat="45.37722" lon="3.73992">
        <ele>675.20001220703</ele>
        <time>2012-05-30T16:57:46Z</time>
      </trkpt>
      <trkpt lat="45.37726" lon="3.73995">
        <ele>674.79998779297</ele>
        <time>2012-05-30T16:57:48Z</time>
      </trkpt>
      <trkpt lat="45.37728" lon="3.74002">
        <ele>676.29998779297</ele>
        <time>2012-05-30T16:57:51Z</time>
      </trkpt>
      <trkpt lat="45.37731" lon="3.74007">
        <ele>676.79998779297</ele>
        <time>2012-05-30T16:57:55Z</time>
      </trkpt>
      <trkpt lat="45.37733" lon="3.74013">
        <ele>677</ele>
        <time>2012-05-30T16:57:59Z</time>
      </trkpt>
      <trkpt lat="45.37737" lon="3.74021">
        <ele>677.79998779297</ele>
        <time>2012-05-30T16:58:04Z</time>
      </trkpt>
      <trkpt lat="45.37743" lon="3.74029">
        <ele>678.20001220703</ele>
        <time>2012-05-30T16:58:08Z</time>
      </trkpt>
      <trkpt lat="45.37744" lon="3.74035">
        <ele>678.29998779297</ele>
        <time>2012-05-30T16:58:10Z</time>
      </trkpt>
      <trkpt lat="45.37747" lon="3.7405">
        <ele>674.70001220703</ele>
        <time>2012-05-30T16:58:14Z</time>
      </trkpt>
      <trkpt lat="45.3775" lon="3.74056">
        <ele>674.29998779297</ele>
        <time>2012-05-30T16:58:17Z</time>
      </trkpt>
      <trkpt lat="45.37754" lon="3.7406">
        <ele>673.20001220703</ele>
        <time>2012-05-30T16:58:19Z</time>
      </trkpt>
      <trkpt lat="45.37757" lon="3.74068">
        <ele>672.20001220703</ele>
        <time>2012-05-30T16:58:22Z</time>
      </trkpt>
      <trkpt lat="45.3776" lon="3.74076">
        <ele>672</ele>
        <time>2012-05-30T16:58:25Z</time>
      </trkpt>
      <trkpt lat="45.37762" lon="3.74085">
        <ele>671.70001220703</ele>
        <time>2012-05-30T16:58:28Z</time>
      </trkpt>
      <trkpt lat="45.37763" lon="3.74091">
        <ele>672.09997558594</ele>
        <time>2012-05-30T16:58:30Z</time>
      </trkpt>
      <trkpt lat="45.37768" lon="3.74099">
        <ele>671.09997558594</ele>
        <time>2012-05-30T16:58:33Z</time>
      </trkpt>
      <trkpt lat="45.3777" lon="3.74106">
        <ele>670.20001220703</ele>
        <time>2012-05-30T16:58:37Z</time>
      </trkpt>
      <trkpt lat="45.37772" lon="3.74113">
        <ele>669.70001220703</ele>
        <time>2012-05-30T16:58:41Z</time>
      </trkpt>
      <trkpt lat="45.37775" lon="3.74118">
        <ele>669.5</ele>
        <time>2012-05-30T16:58:43Z</time>
      </trkpt>
      <trkpt lat="45.37779" lon="3.74124">
        <ele>667.29998779297</ele>
        <time>2012-05-30T16:58:45Z</time>
      </trkpt>
      <trkpt lat="45.37781" lon="3.74133">
        <ele>667.20001220703</ele>
        <time>2012-05-30T16:58:48Z</time>
      </trkpt>
      <trkpt lat="45.37781" lon="3.74144">
        <ele>666.59997558594</ele>
        <time>2012-05-30T16:58:50Z</time>
      </trkpt>
      <trkpt lat="45.3778" lon="3.74161">
        <ele>666.59997558594</ele>
        <time>2012-05-30T16:58:55Z</time>
      </trkpt>
      <trkpt lat="45.37785" lon="3.74167">
        <ele>666.40002441406</ele>
        <time>2012-05-30T16:58:57Z</time>
      </trkpt>
      <trkpt lat="45.37786" lon="3.7418">
        <ele>664.29998779297</ele>
        <time>2012-05-30T16:59:01Z</time>
      </trkpt>
      <trkpt lat="45.37794" lon="3.74194">
        <ele>665</ele>
        <time>2012-05-30T16:59:06Z</time>
      </trkpt>
      <trkpt lat="45.37794" lon="3.74202">
        <ele>665.79998779297</ele>
        <time>2012-05-30T16:59:09Z</time>
      </trkpt>
      <trkpt lat="45.37799" lon="3.74203">
        <ele>667.79998779297</ele>
        <time>2012-05-30T16:59:11Z</time>
      </trkpt>
      <trkpt lat="45.37802" lon="3.74209">
        <ele>667.20001220703</ele>
        <time>2012-05-30T16:59:13Z</time>
      </trkpt>
      <trkpt lat="45.37809" lon="3.74231">
        <ele>669.5</ele>
        <time>2012-05-30T16:59:20Z</time>
      </trkpt>
      <trkpt lat="45.37809" lon="3.74238">
        <ele>668.79998779297</ele>
        <time>2012-05-30T16:59:22Z</time>
      </trkpt>
      <trkpt lat="45.37808" lon="3.74245">
        <ele>668.79998779297</ele>
        <time>2012-05-30T16:59:24Z</time>
      </trkpt>
      <trkpt lat="45.37808" lon="3.74255">
        <ele>670.79998779297</ele>
        <time>2012-05-30T16:59:26Z</time>
      </trkpt>
      <trkpt lat="45.37807" lon="3.74264">
        <ele>670.5</ele>
        <time>2012-05-30T16:59:28Z</time>
      </trkpt>
      <trkpt lat="45.37806" lon="3.7427">
        <ele>671.59997558594</ele>
        <time>2012-05-30T16:59:30Z</time>
      </trkpt>
      <trkpt lat="45.37803" lon="3.74277">
        <ele>670.40002441406</ele>
        <time>2012-05-30T16:59:33Z</time>
      </trkpt>
      <trkpt lat="45.37806" lon="3.74283">
        <ele>668.40002441406</ele>
        <time>2012-05-30T16:59:35Z</time>
      </trkpt>
      <trkpt lat="45.37809" lon="3.74289">
        <ele>663.5</ele>
        <time>2012-05-30T16:59:38Z</time>
      </trkpt>
      <trkpt lat="45.37812" lon="3.74298">
        <ele>664.09997558594</ele>
        <time>2012-05-30T16:59:41Z</time>
      </trkpt>
      <trkpt lat="45.37813" lon="3.74305">
        <ele>664.79998779297</ele>
        <time>2012-05-30T16:59:43Z</time>
      </trkpt>
      <trkpt lat="45.37817" lon="3.74314">
        <ele>663.90002441406</ele>
        <time>2012-05-30T16:59:45Z</time>
      </trkpt>
      <trkpt lat="45.37819" lon="3.74322">
        <ele>663.59997558594</ele>
        <time>2012-05-30T16:59:48Z</time>
      </trkpt>
      <trkpt lat="45.37824" lon="3.74327">
        <ele>664.5</ele>
        <time>2012-05-30T16:59:50Z</time>
      </trkpt>
      <trkpt lat="45.37827" lon="3.74332">
        <ele>664</ele>
        <time>2012-05-30T16:59:53Z</time>
      </trkpt>
      <trkpt lat="45.37829" lon="3.74338">
        <ele>664</ele>
        <time>2012-05-30T16:59:55Z</time>
      </trkpt>
      <trkpt lat="45.3783" lon="3.74345">
        <ele>666.70001220703</ele>
        <time>2012-05-30T16:59:57Z</time>
      </trkpt>
      <trkpt lat="45.37833" lon="3.74353">
        <ele>666.20001220703</ele>
        <time>2012-05-30T17:00:00Z</time>
      </trkpt>
      <trkpt lat="45.37835" lon="3.74359">
        <ele>666</ele>
        <time>2012-05-30T17:00:03Z</time>
      </trkpt>
      <trkpt lat="45.37837" lon="3.74366">
        <ele>665.59997558594</ele>
        <time>2012-05-30T17:00:06Z</time>
      </trkpt>
      <trkpt lat="45.37841" lon="3.74377">
        <ele>664.90002441406</ele>
        <time>2012-05-30T17:00:10Z</time>
      </trkpt>
      <trkpt lat="45.37841" lon="3.74385">
        <ele>664.40002441406</ele>
        <time>2012-05-30T17:00:13Z</time>
      </trkpt>
      <trkpt lat="45.37841" lon="3.74398">
        <ele>663.09997558594</ele>
        <time>2012-05-30T17:00:17Z</time>
      </trkpt>
      <trkpt lat="45.3784" lon="3.74405">
        <ele>662.90002441406</ele>
        <time>2012-05-30T17:00:20Z</time>
      </trkpt>
      <trkpt lat="45.3784" lon="3.74426">
        <ele>661</ele>
        <time>2012-05-30T17:00:25Z</time>
      </trkpt>
      <trkpt lat="45.3784" lon="3.74441">
        <ele>660.70001220703</ele>
        <time>2012-05-30T17:00:29Z</time>
      </trkpt>
      <trkpt lat="45.37841" lon="3.74449">
        <ele>660.79998779297</ele>
        <time>2012-05-30T17:00:32Z</time>
      </trkpt>
      <trkpt lat="45.37846" lon="3.74456">
        <ele>661.20001220703</ele>
        <time>2012-05-30T17:00:34Z</time>
      </trkpt>
      <trkpt lat="45.37848" lon="3.74462">
        <ele>662</ele>
        <time>2012-05-30T17:00:36Z</time>
      </trkpt>
      <trkpt lat="45.37852" lon="3.74466">
        <ele>661.20001220703</ele>
        <time>2012-05-30T17:00:38Z</time>
      </trkpt>
      <trkpt lat="45.37854" lon="3.74473">
        <ele>662.5</ele>
        <time>2012-05-30T17:00:40Z</time>
      </trkpt>
      <trkpt lat="45.37857" lon="3.74478">
        <ele>663</ele>
        <time>2012-05-30T17:00:42Z</time>
      </trkpt>
      <trkpt lat="45.3786" lon="3.74482">
        <ele>663.09997558594</ele>
        <time>2012-05-30T17:00:44Z</time>
      </trkpt>
      <trkpt lat="45.37865" lon="3.74489">
        <ele>662.90002441406</ele>
        <time>2012-05-30T17:00:47Z</time>
      </trkpt>
      <trkpt lat="45.37869" lon="3.74495">
        <ele>661.40002441406</ele>
        <time>2012-05-30T17:00:50Z</time>
      </trkpt>
      <trkpt lat="45.37871" lon="3.74503">
        <ele>662.09997558594</ele>
        <time>2012-05-30T17:00:53Z</time>
      </trkpt>
      <trkpt lat="45.37874" lon="3.7451">
        <ele>662.90002441406</ele>
        <time>2012-05-30T17:00:56Z</time>
      </trkpt>
      <trkpt lat="45.37877" lon="3.74516">
        <ele>663.90002441406</ele>
        <time>2012-05-30T17:00:58Z</time>
      </trkpt>
      <trkpt lat="45.37882" lon="3.74521">
        <ele>664.40002441406</ele>
        <time>2012-05-30T17:01:01Z</time>
      </trkpt>
      <trkpt lat="45.37885" lon="3.74527">
        <ele>665.09997558594</ele>
        <time>2012-05-30T17:01:03Z</time>
      </trkpt>
      <trkpt lat="45.37901" lon="3.74552">
        <ele>662.09997558594</ele>
        <time>2012-05-30T17:01:17Z</time>
      </trkpt>
      <trkpt lat="45.37903" lon="3.74558">
        <ele>662.5</ele>
        <time>2012-05-30T17:01:19Z</time>
      </trkpt>
      <trkpt lat="45.37903" lon="3.74565">
        <ele>662.29998779297</ele>
        <time>2012-05-30T17:01:22Z</time>
      </trkpt>
      <trkpt lat="45.3791" lon="3.74569">
        <ele>663.29998779297</ele>
        <time>2012-05-30T17:01:24Z</time>
      </trkpt>
      <trkpt lat="45.37914" lon="3.74576">
        <ele>662.59997558594</ele>
        <time>2012-05-30T17:01:28Z</time>
      </trkpt>
      <trkpt lat="45.37917" lon="3.74582">
        <ele>663.70001220703</ele>
        <time>2012-05-30T17:01:30Z</time>
      </trkpt>
      <trkpt lat="45.37921" lon="3.74585">
        <ele>664.20001220703</ele>
        <time>2012-05-30T17:01:32Z</time>
      </trkpt>
      <trkpt lat="45.37929" lon="3.7459">
        <ele>664.79998779297</ele>
        <time>2012-05-30T17:01:35Z</time>
      </trkpt>
      <trkpt lat="45.37936" lon="3.74594">
        <ele>664.59997558594</ele>
        <time>2012-05-30T17:01:38Z</time>
      </trkpt>
      <trkpt lat="45.37939" lon="3.74599">
        <ele>664.40002441406</ele>
        <time>2012-05-30T17:01:40Z</time>
      </trkpt>
      <trkpt lat="45.37943" lon="3.74606">
        <ele>663.70001220703</ele>
        <time>2012-05-30T17:01:43Z</time>
      </trkpt>
      <trkpt lat="45.37948" lon="3.74607">
        <ele>663.09997558594</ele>
        <time>2012-05-30T17:01:46Z</time>
      </trkpt>
      <trkpt lat="45.37951" lon="3.74612">
        <ele>663.59997558594</ele>
        <time>2012-05-30T17:01:48Z</time>
      </trkpt>
      <trkpt lat="45.37958" lon="3.74631">
        <ele>664.90002441406</ele>
        <time>2012-05-30T17:01:54Z</time>
      </trkpt>
      <trkpt lat="45.37967" lon="3.7464">
        <ele>665.09997558594</ele>
        <time>2012-05-30T17:01:59Z</time>
      </trkpt>
      <trkpt lat="45.3797" lon="3.74647">
        <ele>663.40002441406</ele>
        <time>2012-05-30T17:02:01Z</time>
      </trkpt>
      <trkpt lat="45.37972" lon="3.74653">
        <ele>661.70001220703</ele>
        <time>2012-05-30T17:02:04Z</time>
      </trkpt>
      <trkpt lat="45.37975" lon="3.74666">
        <ele>661.70001220703</ele>
        <time>2012-05-30T17:02:08Z</time>
      </trkpt>
      <trkpt lat="45.3798" lon="3.74672">
        <ele>662.29998779297</ele>
        <time>2012-05-30T17:02:10Z</time>
      </trkpt>
      <trkpt lat="45.37984" lon="3.74677">
        <ele>661.40002441406</ele>
        <time>2012-05-30T17:02:12Z</time>
      </trkpt>
      <trkpt lat="45.37988" lon="3.74683">
        <ele>660.09997558594</ele>
        <time>2012-05-30T17:02:15Z</time>
      </trkpt>
      <trkpt lat="45.37994" lon="3.74688">
        <ele>662.20001220703</ele>
        <time>2012-05-30T17:02:17Z</time>
      </trkpt>
      <trkpt lat="45.37997" lon="3.74697">
        <ele>662.20001220703</ele>
        <time>2012-05-30T17:02:21Z</time>
      </trkpt>
      <trkpt lat="45.38002" lon="3.74699">
        <ele>663.71215820312</ele>
        <time>2012-05-30T17:02:22Z</time>
      </trkpt>
      <trkpt lat="45.38008" lon="3.74704">
        <ele>661.59997558594</ele>
        <time>2012-05-30T17:02:24Z</time>
      </trkpt>
      <trkpt lat="45.38013" lon="3.74712">
        <ele>661.90002441406</ele>
        <time>2012-05-30T17:02:26Z</time>
      </trkpt>
      <trkpt lat="45.38018" lon="3.74719">
        <ele>662.29998779297</ele>
        <time>2012-05-30T17:02:29Z</time>
      </trkpt>
      <trkpt lat="45.38021" lon="3.74724">
        <ele>662.59997558594</ele>
        <time>2012-05-30T17:02:31Z</time>
      </trkpt>
      <trkpt lat="45.38026" lon="3.74733">
        <ele>662.29998779297</ele>
        <time>2012-05-30T17:02:35Z</time>
      </trkpt>
      <trkpt lat="45.38034" lon="3.74743">
        <ele>662.40002441406</ele>
        <time>2012-05-30T17:02:39Z</time>
      </trkpt>
      <trkpt lat="45.38041" lon="3.74741">
        <ele>660</ele>
        <time>2012-05-30T17:02:41Z</time>
      </trkpt>
      <trkpt lat="45.38046" lon="3.74747">
        <ele>660</ele>
        <time>2012-05-30T17:02:44Z</time>
      </trkpt>
      <trkpt lat="45.38051" lon="3.74754">
        <ele>660.79998779297</ele>
        <time>2012-05-30T17:02:47Z</time>
      </trkpt>
      <trkpt lat="45.38056" lon="3.74758">
        <ele>658.90002441406</ele>
        <time>2012-05-30T17:02:50Z</time>
      </trkpt>
      <trkpt lat="45.38059" lon="3.74763">
        <ele>658.29998779297</ele>
        <time>2012-05-30T17:02:53Z</time>
      </trkpt>
      <trkpt lat="45.38063" lon="3.74769">
        <ele>658.59997558594</ele>
        <time>2012-05-30T17:02:56Z</time>
      </trkpt>
      <trkpt lat="45.38069" lon="3.74775">
        <ele>658.29998779297</ele>
        <time>2012-05-30T17:02:59Z</time>
      </trkpt>
      <trkpt lat="45.38074" lon="3.74782">
        <ele>657.70001220703</ele>
        <time>2012-05-30T17:03:02Z</time>
      </trkpt>
      <trkpt lat="45.38079" lon="3.74788">
        <ele>658.09997558594</ele>
        <time>2012-05-30T17:03:06Z</time>
      </trkpt>
      <trkpt lat="45.38084" lon="3.7479">
        <ele>658.59997558594</ele>
        <time>2012-05-30T17:03:08Z</time>
      </trkpt>
      <trkpt lat="45.38089" lon="3.74791">
        <ele>659.09997558594</ele>
        <time>2012-05-30T17:03:09Z</time>
      </trkpt>
      <trkpt lat="45.38094" lon="3.74792">
        <ele>657.79998779297</ele>
        <time>2012-05-30T17:03:10Z</time>
      </trkpt>
      <trkpt lat="45.38095" lon="3.74799">
        <ele>658.59997558594</ele>
        <time>2012-05-30T17:03:12Z</time>
      </trkpt>
      <trkpt lat="45.381" lon="3.74804">
        <ele>661.59997558594</ele>
        <time>2012-05-30T17:03:14Z</time>
      </trkpt>
      <trkpt lat="45.38104" lon="3.74808">
        <ele>659.29998779297</ele>
        <time>2012-05-30T17:03:17Z</time>
      </trkpt>
      <trkpt lat="45.38109" lon="3.74814">
        <ele>659.20001220703</ele>
        <time>2012-05-30T17:03:20Z</time>
      </trkpt>
      <trkpt lat="45.38112" lon="3.74821">
        <ele>658.29998779297</ele>
        <time>2012-05-30T17:03:23Z</time>
      </trkpt>
      <trkpt lat="45.38114" lon="3.74829">
        <ele>657.79998779297</ele>
        <time>2012-05-30T17:03:26Z</time>
      </trkpt>
      <trkpt lat="45.38123" lon="3.74846">
        <ele>657.20001220703</ele>
        <time>2012-05-30T17:03:34Z</time>
      </trkpt>
      <trkpt lat="45.38124" lon="3.74852">
        <ele>657.29998779297</ele>
        <time>2012-05-30T17:03:36Z</time>
      </trkpt>
      <trkpt lat="45.3813" lon="3.74857">
        <ele>657</ele>
        <time>2012-05-30T17:03:39Z</time>
      </trkpt>
      <trkpt lat="45.38132" lon="3.74863">
        <ele>657.5</ele>
        <time>2012-05-30T17:03:41Z</time>
      </trkpt>
      <trkpt lat="45.38131" lon="3.7487">
        <ele>660.29998779297</ele>
        <time>2012-05-30T17:03:42Z</time>
      </trkpt>
      <trkpt lat="45.38137" lon="3.74875">
        <ele>661.40002441406</ele>
        <time>2012-05-30T17:03:44Z</time>
      </trkpt>
      <trkpt lat="45.38138" lon="3.74883">
        <ele>660.70001220703</ele>
        <time>2012-05-30T17:03:46Z</time>
      </trkpt>
      <trkpt lat="45.38143" lon="3.7489">
        <ele>659.29998779297</ele>
        <time>2012-05-30T17:03:49Z</time>
      </trkpt>
      <trkpt lat="45.38145" lon="3.74899">
        <ele>658.29998779297</ele>
        <time>2012-05-30T17:03:53Z</time>
      </trkpt>
      <trkpt lat="45.38151" lon="3.74901">
        <ele>656.90002441406</ele>
        <time>2012-05-30T17:03:56Z</time>
      </trkpt>
      <trkpt lat="45.38158" lon="3.74907">
        <ele>658.5</ele>
        <time>2012-05-30T17:03:59Z</time>
      </trkpt>
      <trkpt lat="45.38162" lon="3.7491">
        <ele>659.09997558594</ele>
        <time>2012-05-30T17:04:01Z</time>
      </trkpt>
      <trkpt lat="45.38167" lon="3.74913">
        <ele>659</ele>
        <time>2012-05-30T17:04:03Z</time>
      </trkpt>
      <trkpt lat="45.38172" lon="3.74918">
        <ele>658.40002441406</ele>
        <time>2012-05-30T17:04:06Z</time>
      </trkpt>
      <trkpt lat="45.3818" lon="3.74929">
        <ele>655.90002441406</ele>
        <time>2012-05-30T17:04:11Z</time>
      </trkpt>
      <trkpt lat="45.38186" lon="3.74934">
        <ele>657.5</ele>
        <time>2012-05-30T17:04:14Z</time>
      </trkpt>
      <trkpt lat="45.3819" lon="3.74937">
        <ele>654.79998779297</ele>
        <time>2012-05-30T17:04:16Z</time>
      </trkpt>
      <trkpt lat="45.38196" lon="3.74941">
        <ele>654.70001220703</ele>
        <time>2012-05-30T17:04:18Z</time>
      </trkpt>
      <trkpt lat="45.38201" lon="3.74946">
        <ele>652.79998779297</ele>
        <time>2012-05-30T17:04:21Z</time>
      </trkpt>
      <trkpt lat="45.38205" lon="3.74951">
        <ele>653.59997558594</ele>
        <time>2012-05-30T17:04:27Z</time>
      </trkpt>
      <trkpt lat="45.3821" lon="3.74956">
        <ele>652.40002441406</ele>
        <time>2012-05-30T17:04:29Z</time>
      </trkpt>
      <trkpt lat="45.38213" lon="3.74959">
        <ele>650.79998779297</ele>
        <time>2012-05-30T17:04:31Z</time>
      </trkpt>
      <trkpt lat="45.38219" lon="3.74965">
        <ele>651.29998779297</ele>
        <time>2012-05-30T17:04:34Z</time>
      </trkpt>
      <trkpt lat="45.38223" lon="3.74972">
        <ele>651.59997558594</ele>
        <time>2012-05-30T17:04:37Z</time>
      </trkpt>
      <trkpt lat="45.38244" lon="3.75006">
        <ele>652.09997558594</ele>
        <time>2012-05-30T17:04:49Z</time>
      </trkpt>
      <trkpt lat="45.38246" lon="3.75012">
        <ele>651</ele>
        <time>2012-05-30T17:04:52Z</time>
      </trkpt>
      <trkpt lat="45.38251" lon="3.75017">
        <ele>650.29998779297</ele>
        <time>2012-05-30T17:04:54Z</time>
      </trkpt>
      <trkpt lat="45.38261" lon="3.75016">
        <ele>647.20001220703</ele>
        <time>2012-05-30T17:04:57Z</time>
      </trkpt>
      <trkpt lat="45.38265" lon="3.75017">
        <ele>647.09997558594</ele>
        <time>2012-05-30T17:05:00Z</time>
      </trkpt>
      <trkpt lat="45.3827" lon="3.75019">
        <ele>648.40002441406</ele>
        <time>2012-05-30T17:05:02Z</time>
      </trkpt>
      <trkpt lat="45.38283" lon="3.75038">
        <ele>649.70001220703</ele>
        <time>2012-05-30T17:05:16Z</time>
      </trkpt>
      <trkpt lat="45.38284" lon="3.75046">
        <ele>650.29998779297</ele>
        <time>2012-05-30T17:05:18Z</time>
      </trkpt>
      <trkpt lat="45.38287" lon="3.75051">
        <ele>650.29998779297</ele>
        <time>2012-05-30T17:05:20Z</time>
      </trkpt>
      <trkpt lat="45.38291" lon="3.75058">
        <ele>650.29998779297</ele>
        <time>2012-05-30T17:05:24Z</time>
      </trkpt>
      <trkpt lat="45.38293" lon="3.75064">
        <ele>650.40002441406</ele>
        <time>2012-05-30T17:05:26Z</time>
      </trkpt>
      <trkpt lat="45.38299" lon="3.75068">
        <ele>650.5</ele>
        <time>2012-05-30T17:05:29Z</time>
      </trkpt>
      <trkpt lat="45.38304" lon="3.75072">
        <ele>650.5</ele>
        <time>2012-05-30T17:05:31Z</time>
      </trkpt>
      <trkpt lat="45.38309" lon="3.75073">
        <ele>651.5</ele>
        <time>2012-05-30T17:05:33Z</time>
      </trkpt>
      <trkpt lat="45.38314" lon="3.75067">
        <ele>651.40002441406</ele>
        <time>2012-05-30T17:05:36Z</time>
      </trkpt>
      <trkpt lat="45.38316" lon="3.75073">
        <ele>649.5</ele>
        <time>2012-05-30T17:05:37Z</time>
      </trkpt>
      <trkpt lat="45.3832" lon="3.75077">
        <ele>653.70001220703</ele>
        <time>2012-05-30T17:05:41Z</time>
      </trkpt>
    </trkseg>
  </trk>
</gpx>